<?xml version="1.0" encoding="UTF-8" standalone="no" ?>
<gpx xmlns="http://www.topografix.com/GPX/1/1" xmlns:xsi="http://www.w3.org/2001/XMLSchema-instance" xsi:schemaLocation="http://www.topografix.com/GPX/1/1 http://www.topografix.com/GPX/1/1/gpx.xsd" version="1.1" creator="VisuGPX - https://www.visugpx.com">
  <metadata>
    <name>La Tour - La bastidonne</name>
    <desc><![CDATA[Sortie Ecole de VTT de la Tour d'aigues du 26.11.2016]]></desc>
  </metadata>
  <trk>
    <name><![CDATA[OR-6812555--Tour-d'Aigues (La):2016.11.26-ECVTT]]></name>
    <trkseg>
      <trkpt lat="43.72465" lon="5.55034">
        <ele>247</ele>
        <time>2017-02-04T06:58:07Z</time>
      </trkpt>
      <trkpt lat="43.72463" lon="5.5504">
        <ele>247</ele>
        <time>2017-02-04T07:00:07Z</time>
      </trkpt>
      <trkpt lat="43.72458" lon="5.5505">
        <ele>247</ele>
        <time>2017-02-04T07:02:07Z</time>
      </trkpt>
      <trkpt lat="43.72448" lon="5.55057">
        <ele>246</ele>
        <time>2017-02-04T07:04:07Z</time>
      </trkpt>
      <trkpt lat="43.72437" lon="5.55067">
        <ele>246</ele>
        <time>2017-02-04T07:06:07Z</time>
      </trkpt>
      <trkpt lat="43.72433" lon="5.55072">
        <ele>245</ele>
        <time>2017-02-04T07:08:07Z</time>
      </trkpt>
      <trkpt lat="43.72423" lon="5.55081">
        <ele>245</ele>
        <time>2017-02-04T07:10:07Z</time>
      </trkpt>
      <trkpt lat="43.72412" lon="5.55079">
        <ele>245</ele>
        <time>2017-02-04T07:12:07Z</time>
      </trkpt>
      <trkpt lat="43.72403" lon="5.55077">
        <ele>245</ele>
        <time>2017-02-04T07:14:07Z</time>
      </trkpt>
      <trkpt lat="43.72357" lon="5.55071">
        <ele>245</ele>
        <time>2017-02-04T07:16:07Z</time>
      </trkpt>
      <trkpt lat="43.72333" lon="5.55068">
        <ele>245</ele>
        <time>2017-02-04T07:18:07Z</time>
      </trkpt>
      <trkpt lat="43.72318" lon="5.55061">
        <ele>245</ele>
        <time>2017-02-04T07:20:07Z</time>
      </trkpt>
      <trkpt lat="43.72315" lon="5.55058">
        <ele>245</ele>
        <time>2017-02-04T07:22:07Z</time>
      </trkpt>
      <trkpt lat="43.72288" lon="5.55045">
        <ele>245</ele>
        <time>2017-02-04T07:24:07Z</time>
      </trkpt>
      <trkpt lat="43.7228" lon="5.55042">
        <ele>245</ele>
        <time>2017-02-04T07:26:07Z</time>
      </trkpt>
      <trkpt lat="43.72243" lon="5.55024">
        <ele>245</ele>
        <time>2017-02-04T07:28:07Z</time>
      </trkpt>
      <trkpt lat="43.7221" lon="5.54992">
        <ele>244</ele>
        <time>2017-02-04T07:30:07Z</time>
      </trkpt>
      <trkpt lat="43.72206" lon="5.54989">
        <ele>244</ele>
        <time>2017-02-04T07:32:07Z</time>
      </trkpt>
      <trkpt lat="43.72194" lon="5.54968">
        <ele>244</ele>
        <time>2017-02-04T07:34:07Z</time>
      </trkpt>
      <trkpt lat="43.72192" lon="5.54956">
        <ele>244</ele>
        <time>2017-02-04T07:36:07Z</time>
      </trkpt>
      <trkpt lat="43.7219" lon="5.54937">
        <ele>243</ele>
        <time>2017-02-04T07:38:07Z</time>
      </trkpt>
      <trkpt lat="43.72188" lon="5.54915">
        <ele>243</ele>
        <time>2017-02-04T07:40:07Z</time>
      </trkpt>
      <trkpt lat="43.72183" lon="5.54881">
        <ele>242</ele>
        <time>2017-02-04T07:42:07Z</time>
      </trkpt>
      <trkpt lat="43.72181" lon="5.54874">
        <ele>242</ele>
        <time>2017-02-04T07:44:07Z</time>
      </trkpt>
      <trkpt lat="43.72178" lon="5.54866">
        <ele>242</ele>
        <time>2017-02-04T07:46:07Z</time>
      </trkpt>
      <trkpt lat="43.72172" lon="5.54853">
        <ele>242</ele>
        <time>2017-02-04T07:48:07Z</time>
      </trkpt>
      <trkpt lat="43.72169" lon="5.54847">
        <ele>241</ele>
        <time>2017-02-04T07:50:07Z</time>
      </trkpt>
      <trkpt lat="43.72164" lon="5.54842">
        <ele>241</ele>
        <time>2017-02-04T07:52:07Z</time>
      </trkpt>
      <trkpt lat="43.72159" lon="5.54839">
        <ele>241</ele>
        <time>2017-02-04T07:54:07Z</time>
      </trkpt>
      <trkpt lat="43.72154" lon="5.54838">
        <ele>241</ele>
        <time>2017-02-04T07:56:07Z</time>
      </trkpt>
      <trkpt lat="43.72149" lon="5.54837">
        <ele>241</ele>
        <time>2017-02-04T07:58:07Z</time>
      </trkpt>
      <trkpt lat="43.72146" lon="5.54838">
        <ele>241</ele>
        <time>2017-02-04T08:00:07Z</time>
      </trkpt>
      <trkpt lat="43.72135" lon="5.54845">
        <ele>242</ele>
        <time>2017-02-04T08:02:07Z</time>
      </trkpt>
      <trkpt lat="43.72085" lon="5.54871">
        <ele>244</ele>
        <time>2017-02-04T08:04:07Z</time>
      </trkpt>
      <trkpt lat="43.72055" lon="5.54879">
        <ele>250</ele>
        <time>2017-02-04T08:06:07Z</time>
      </trkpt>
      <trkpt lat="43.72051" lon="5.54878">
        <ele>250</ele>
        <time>2017-02-04T08:08:07Z</time>
      </trkpt>
      <trkpt lat="43.72047" lon="5.54875">
        <ele>251</ele>
        <time>2017-02-04T08:10:07Z</time>
      </trkpt>
      <trkpt lat="43.72042" lon="5.54866">
        <ele>251</ele>
        <time>2017-02-04T08:12:07Z</time>
      </trkpt>
      <trkpt lat="43.72028" lon="5.54835">
        <ele>250</ele>
        <time>2017-02-04T08:14:07Z</time>
      </trkpt>
      <trkpt lat="43.72017" lon="5.54796">
        <ele>249</ele>
        <time>2017-02-04T08:16:07Z</time>
      </trkpt>
      <trkpt lat="43.72011" lon="5.5478">
        <ele>248</ele>
        <time>2017-02-04T08:18:07Z</time>
      </trkpt>
      <trkpt lat="43.72008" lon="5.54775">
        <ele>248</ele>
        <time>2017-02-04T08:20:07Z</time>
      </trkpt>
      <trkpt lat="43.71989" lon="5.54745">
        <ele>249</ele>
        <time>2017-02-04T08:22:07Z</time>
      </trkpt>
      <trkpt lat="43.7197" lon="5.54723">
        <ele>250</ele>
        <time>2017-02-04T08:24:07Z</time>
      </trkpt>
      <trkpt lat="43.71939" lon="5.54691">
        <ele>251</ele>
        <time>2017-02-04T08:26:07Z</time>
      </trkpt>
      <trkpt lat="43.71936" lon="5.54687">
        <ele>251</ele>
        <time>2017-02-04T08:28:07Z</time>
      </trkpt>
      <trkpt lat="43.71922" lon="5.54664">
        <ele>249</ele>
        <time>2017-02-04T08:30:07Z</time>
      </trkpt>
      <trkpt lat="43.7189" lon="5.54622">
        <ele>247</ele>
        <time>2017-02-04T08:32:07Z</time>
      </trkpt>
      <trkpt lat="43.71872" lon="5.54608">
        <ele>247</ele>
        <time>2017-02-04T08:34:07Z</time>
      </trkpt>
      <trkpt lat="43.71842" lon="5.54596">
        <ele>247</ele>
        <time>2017-02-04T08:36:07Z</time>
      </trkpt>
      <trkpt lat="43.71837" lon="5.54595">
        <ele>248</ele>
        <time>2017-02-04T08:38:07Z</time>
      </trkpt>
      <trkpt lat="43.71833" lon="5.54595">
        <ele>248</ele>
        <time>2017-02-04T08:40:07Z</time>
      </trkpt>
      <trkpt lat="43.71828" lon="5.54596">
        <ele>248</ele>
        <time>2017-02-04T08:42:07Z</time>
      </trkpt>
      <trkpt lat="43.7178" lon="5.5461">
        <ele>249</ele>
        <time>2017-02-04T08:44:07Z</time>
      </trkpt>
      <trkpt lat="43.71737" lon="5.54622">
        <ele>249</ele>
        <time>2017-02-04T08:46:07Z</time>
      </trkpt>
      <trkpt lat="43.71695" lon="5.5463">
        <ele>251</ele>
        <time>2017-02-04T08:48:07Z</time>
      </trkpt>
      <trkpt lat="43.71662" lon="5.54628">
        <ele>251</ele>
        <time>2017-02-04T08:50:07Z</time>
      </trkpt>
      <trkpt lat="43.71638" lon="5.54641">
        <ele>253</ele>
        <time>2017-02-04T08:52:07Z</time>
      </trkpt>
      <trkpt lat="43.71626" lon="5.54663">
        <ele>254</ele>
        <time>2017-02-04T08:54:07Z</time>
      </trkpt>
      <trkpt lat="43.71615" lon="5.5468">
        <ele>254</ele>
        <time>2017-02-04T08:56:07Z</time>
      </trkpt>
      <trkpt lat="43.71588" lon="5.54713">
        <ele>256</ele>
        <time>2017-02-04T08:58:07Z</time>
      </trkpt>
      <trkpt lat="43.71569" lon="5.54728">
        <ele>257</ele>
        <time>2017-02-04T09:00:07Z</time>
      </trkpt>
      <trkpt lat="43.7154" lon="5.54739">
        <ele>260</ele>
        <time>2017-02-04T09:02:07Z</time>
      </trkpt>
      <trkpt lat="43.71517" lon="5.54749">
        <ele>262</ele>
        <time>2017-02-04T09:04:07Z</time>
      </trkpt>
      <trkpt lat="43.71502" lon="5.54767">
        <ele>263</ele>
        <time>2017-02-04T09:06:07Z</time>
      </trkpt>
      <trkpt lat="43.71495" lon="5.54769">
        <ele>264</ele>
        <time>2017-02-04T09:08:07Z</time>
      </trkpt>
      <trkpt lat="43.71491" lon="5.5477">
        <ele>264</ele>
        <time>2017-02-04T09:10:07Z</time>
      </trkpt>
      <trkpt lat="43.71492" lon="5.54772">
        <ele>264</ele>
        <time>2017-02-04T09:12:07Z</time>
      </trkpt>
      <trkpt lat="43.71491" lon="5.54768">
        <ele>264</ele>
        <time>2017-02-04T09:14:07Z</time>
      </trkpt>
      <trkpt lat="43.71492" lon="5.5477">
        <ele>264</ele>
        <time>2017-02-04T09:16:07Z</time>
      </trkpt>
      <trkpt lat="43.71494" lon="5.54769">
        <ele>264</ele>
        <time>2017-02-04T09:18:07Z</time>
      </trkpt>
      <trkpt lat="43.71497" lon="5.54768">
        <ele>264</ele>
        <time>2017-02-04T09:20:07Z</time>
      </trkpt>
      <trkpt lat="43.71494" lon="5.54771">
        <ele>264</ele>
        <time>2017-02-04T09:22:07Z</time>
      </trkpt>
      <trkpt lat="43.71492" lon="5.54771">
        <ele>264</ele>
        <time>2017-02-04T09:24:07Z</time>
      </trkpt>
      <trkpt lat="43.71488" lon="5.5477">
        <ele>264</ele>
        <time>2017-02-04T09:26:07Z</time>
      </trkpt>
      <trkpt lat="43.71487" lon="5.5477">
        <ele>264</ele>
        <time>2017-02-04T09:28:07Z</time>
      </trkpt>
      <trkpt lat="43.71483" lon="5.54771">
        <ele>264</ele>
        <time>2017-02-04T09:30:07Z</time>
      </trkpt>
      <trkpt lat="43.71481" lon="5.54771">
        <ele>264</ele>
        <time>2017-02-04T09:32:07Z</time>
      </trkpt>
      <trkpt lat="43.71476" lon="5.54771">
        <ele>265</ele>
        <time>2017-02-04T09:34:07Z</time>
      </trkpt>
      <trkpt lat="43.71472" lon="5.54771">
        <ele>265</ele>
        <time>2017-02-04T09:36:07Z</time>
      </trkpt>
      <trkpt lat="43.71459" lon="5.54773">
        <ele>266</ele>
        <time>2017-02-04T09:38:07Z</time>
      </trkpt>
      <trkpt lat="43.71455" lon="5.54773">
        <ele>266</ele>
        <time>2017-02-04T09:40:07Z</time>
      </trkpt>
      <trkpt lat="43.71452" lon="5.54773">
        <ele>266</ele>
        <time>2017-02-04T09:42:07Z</time>
      </trkpt>
      <trkpt lat="43.71448" lon="5.54773">
        <ele>267</ele>
        <time>2017-02-04T09:44:07Z</time>
      </trkpt>
      <trkpt lat="43.71438" lon="5.54774">
        <ele>267</ele>
        <time>2017-02-04T09:46:07Z</time>
      </trkpt>
      <trkpt lat="43.71434" lon="5.54775">
        <ele>267</ele>
        <time>2017-02-04T09:48:07Z</time>
      </trkpt>
      <trkpt lat="43.71429" lon="5.54777">
        <ele>268</ele>
        <time>2017-02-04T09:50:07Z</time>
      </trkpt>
      <trkpt lat="43.71406" lon="5.54784">
        <ele>269</ele>
        <time>2017-02-04T09:52:07Z</time>
      </trkpt>
      <trkpt lat="43.71385" lon="5.54787">
        <ele>268</ele>
        <time>2017-02-04T09:54:07Z</time>
      </trkpt>
      <trkpt lat="43.7135" lon="5.54795">
        <ele>268</ele>
        <time>2017-02-04T09:56:07Z</time>
      </trkpt>
      <trkpt lat="43.7133" lon="5.54801">
        <ele>267</ele>
        <time>2017-02-04T09:58:07Z</time>
      </trkpt>
      <trkpt lat="43.71317" lon="5.54803">
        <ele>266</ele>
        <time>2017-02-04T10:00:07Z</time>
      </trkpt>
      <trkpt lat="43.71313" lon="5.54805">
        <ele>266</ele>
        <time>2017-02-04T10:02:07Z</time>
      </trkpt>
      <trkpt lat="43.71304" lon="5.5481">
        <ele>265</ele>
        <time>2017-02-04T10:04:07Z</time>
      </trkpt>
      <trkpt lat="43.713" lon="5.54814">
        <ele>265</ele>
        <time>2017-02-04T10:06:07Z</time>
      </trkpt>
      <trkpt lat="43.71293" lon="5.54823">
        <ele>265</ele>
        <time>2017-02-04T10:08:07Z</time>
      </trkpt>
      <trkpt lat="43.7129" lon="5.54828">
        <ele>265</ele>
        <time>2017-02-04T10:10:07Z</time>
      </trkpt>
      <trkpt lat="43.71261" lon="5.54887">
        <ele>266</ele>
        <time>2017-02-04T10:12:07Z</time>
      </trkpt>
      <trkpt lat="43.71245" lon="5.54926">
        <ele>267</ele>
        <time>2017-02-04T10:14:07Z</time>
      </trkpt>
      <trkpt lat="43.71242" lon="5.54931">
        <ele>266</ele>
        <time>2017-02-04T10:16:07Z</time>
      </trkpt>
      <trkpt lat="43.71232" lon="5.5495">
        <ele>266</ele>
        <time>2017-02-04T10:18:07Z</time>
      </trkpt>
      <trkpt lat="43.71226" lon="5.54959">
        <ele>266</ele>
        <time>2017-02-04T10:20:07Z</time>
      </trkpt>
      <trkpt lat="43.71219" lon="5.54976">
        <ele>266</ele>
        <time>2017-02-04T10:22:07Z</time>
      </trkpt>
      <trkpt lat="43.71209" lon="5.55005">
        <ele>265</ele>
        <time>2017-02-04T10:24:07Z</time>
      </trkpt>
      <trkpt lat="43.71207" lon="5.55008">
        <ele>265</ele>
        <time>2017-02-04T10:26:07Z</time>
      </trkpt>
      <trkpt lat="43.71203" lon="5.55011">
        <ele>265</ele>
        <time>2017-02-04T10:28:07Z</time>
      </trkpt>
      <trkpt lat="43.71199" lon="5.55012">
        <ele>265</ele>
        <time>2017-02-04T10:30:07Z</time>
      </trkpt>
      <trkpt lat="43.71195" lon="5.55012">
        <ele>265</ele>
        <time>2017-02-04T10:32:07Z</time>
      </trkpt>
      <trkpt lat="43.71192" lon="5.55011">
        <ele>265</ele>
        <time>2017-02-04T10:34:07Z</time>
      </trkpt>
      <trkpt lat="43.71155" lon="5.55011">
        <ele>264</ele>
        <time>2017-02-04T10:36:07Z</time>
      </trkpt>
      <trkpt lat="43.71143" lon="5.5501">
        <ele>265</ele>
        <time>2017-02-04T10:38:07Z</time>
      </trkpt>
      <trkpt lat="43.7114" lon="5.55012">
        <ele>265</ele>
        <time>2017-02-04T10:40:07Z</time>
      </trkpt>
      <trkpt lat="43.71139" lon="5.55012">
        <ele>265</ele>
        <time>2017-02-04T10:42:07Z</time>
      </trkpt>
      <trkpt lat="43.71139" lon="5.55016">
        <ele>265</ele>
        <time>2017-02-04T10:44:07Z</time>
      </trkpt>
      <trkpt lat="43.7114" lon="5.55019">
        <ele>265</ele>
        <time>2017-02-04T10:46:07Z</time>
      </trkpt>
      <trkpt lat="43.71141" lon="5.5503">
        <ele>265</ele>
        <time>2017-02-04T10:48:07Z</time>
      </trkpt>
      <trkpt lat="43.7114" lon="5.55032">
        <ele>265</ele>
        <time>2017-02-04T10:50:07Z</time>
      </trkpt>
      <trkpt lat="43.71139" lon="5.55033">
        <ele>265</ele>
        <time>2017-02-04T10:52:07Z</time>
      </trkpt>
      <trkpt lat="43.71138" lon="5.55033">
        <ele>265</ele>
        <time>2017-02-04T10:54:07Z</time>
      </trkpt>
      <trkpt lat="43.71136" lon="5.5503">
        <ele>266</ele>
        <time>2017-02-04T10:56:07Z</time>
      </trkpt>
      <trkpt lat="43.71133" lon="5.5503">
        <ele>266</ele>
        <time>2017-02-04T10:58:07Z</time>
      </trkpt>
      <trkpt lat="43.71119" lon="5.55021">
        <ele>266</ele>
        <time>2017-02-04T11:00:07Z</time>
      </trkpt>
      <trkpt lat="43.71086" lon="5.54997">
        <ele>267</ele>
        <time>2017-02-04T11:02:07Z</time>
      </trkpt>
      <trkpt lat="43.71053" lon="5.5499">
        <ele>267</ele>
        <time>2017-02-04T11:04:07Z</time>
      </trkpt>
      <trkpt lat="43.71019" lon="5.54996">
        <ele>268</ele>
        <time>2017-02-04T11:06:07Z</time>
      </trkpt>
      <trkpt lat="43.70996" lon="5.54997">
        <ele>267</ele>
        <time>2017-02-04T11:08:07Z</time>
      </trkpt>
      <trkpt lat="43.70962" lon="5.54998">
        <ele>264</ele>
        <time>2017-02-04T11:10:07Z</time>
      </trkpt>
      <trkpt lat="43.70927" lon="5.54995">
        <ele>261</ele>
        <time>2017-02-04T11:12:07Z</time>
      </trkpt>
      <trkpt lat="43.70871" lon="5.54978">
        <ele>260</ele>
        <time>2017-02-04T11:14:07Z</time>
      </trkpt>
      <trkpt lat="43.70856" lon="5.54978">
        <ele>260</ele>
        <time>2017-02-04T11:16:07Z</time>
      </trkpt>
      <trkpt lat="43.70818" lon="5.54986">
        <ele>261</ele>
        <time>2017-02-04T11:18:07Z</time>
      </trkpt>
      <trkpt lat="43.7078" lon="5.55005">
        <ele>263</ele>
        <time>2017-02-04T11:20:07Z</time>
      </trkpt>
      <trkpt lat="43.70754" lon="5.5503">
        <ele>264</ele>
        <time>2017-02-04T11:22:07Z</time>
      </trkpt>
      <trkpt lat="43.70735" lon="5.55057">
        <ele>265</ele>
        <time>2017-02-04T11:24:07Z</time>
      </trkpt>
      <trkpt lat="43.70703" lon="5.55097">
        <ele>267</ele>
        <time>2017-02-04T11:26:07Z</time>
      </trkpt>
      <trkpt lat="43.70675" lon="5.55125">
        <ele>267</ele>
        <time>2017-02-04T11:28:07Z</time>
      </trkpt>
      <trkpt lat="43.70656" lon="5.55157">
        <ele>267</ele>
        <time>2017-02-04T11:30:07Z</time>
      </trkpt>
      <trkpt lat="43.70643" lon="5.55195">
        <ele>268</ele>
        <time>2017-02-04T11:32:07Z</time>
      </trkpt>
      <trkpt lat="43.70628" lon="5.55247">
        <ele>270</ele>
        <time>2017-02-04T11:34:07Z</time>
      </trkpt>
      <trkpt lat="43.70613" lon="5.55293">
        <ele>271</ele>
        <time>2017-02-04T11:36:07Z</time>
      </trkpt>
      <trkpt lat="43.70592" lon="5.55367">
        <ele>273</ele>
        <time>2017-02-04T11:38:07Z</time>
      </trkpt>
      <trkpt lat="43.70574" lon="5.55396">
        <ele>273</ele>
        <time>2017-02-04T11:40:07Z</time>
      </trkpt>
      <trkpt lat="43.70563" lon="5.55426">
        <ele>274</ele>
        <time>2017-02-04T11:42:07Z</time>
      </trkpt>
      <trkpt lat="43.70551" lon="5.55471">
        <ele>275</ele>
        <time>2017-02-04T11:44:07Z</time>
      </trkpt>
      <trkpt lat="43.70545" lon="5.55506">
        <ele>277</ele>
        <time>2017-02-04T11:46:07Z</time>
      </trkpt>
      <trkpt lat="43.70529" lon="5.5553">
        <ele>278</ele>
        <time>2017-02-04T11:48:07Z</time>
      </trkpt>
      <trkpt lat="43.70513" lon="5.55558">
        <ele>280</ele>
        <time>2017-02-04T11:50:07Z</time>
      </trkpt>
      <trkpt lat="43.70502" lon="5.55581">
        <ele>282</ele>
        <time>2017-02-04T11:52:07Z</time>
      </trkpt>
      <trkpt lat="43.70489" lon="5.55603">
        <ele>283</ele>
        <time>2017-02-04T11:54:07Z</time>
      </trkpt>
      <trkpt lat="43.70466" lon="5.55628">
        <ele>285</ele>
        <time>2017-02-04T11:56:07Z</time>
      </trkpt>
      <trkpt lat="43.70446" lon="5.55639">
        <ele>287</ele>
        <time>2017-02-04T11:58:07Z</time>
      </trkpt>
      <trkpt lat="43.70445" lon="5.55638">
        <ele>287</ele>
        <time>2017-02-04T12:00:07Z</time>
      </trkpt>
      <trkpt lat="43.70439" lon="5.55632">
        <ele>287</ele>
        <time>2017-02-04T12:02:07Z</time>
      </trkpt>
      <trkpt lat="43.70437" lon="5.55629">
        <ele>286</ele>
        <time>2017-02-04T12:04:07Z</time>
      </trkpt>
      <trkpt lat="43.70435" lon="5.55633">
        <ele>287</ele>
        <time>2017-02-04T12:06:07Z</time>
      </trkpt>
      <trkpt lat="43.70436" lon="5.55628">
        <ele>286</ele>
        <time>2017-02-04T12:08:07Z</time>
      </trkpt>
      <trkpt lat="43.70436" lon="5.55629">
        <ele>286</ele>
        <time>2017-02-04T12:10:07Z</time>
      </trkpt>
      <trkpt lat="43.70437" lon="5.5563">
        <ele>287</ele>
        <time>2017-02-04T12:12:07Z</time>
      </trkpt>
      <trkpt lat="43.70435" lon="5.55632">
        <ele>287</ele>
        <time>2017-02-04T12:14:07Z</time>
      </trkpt>
      <trkpt lat="43.70433" lon="5.55628">
        <ele>287</ele>
        <time>2017-02-04T12:16:07Z</time>
      </trkpt>
      <trkpt lat="43.70434" lon="5.55628">
        <ele>287</ele>
        <time>2017-02-04T12:18:07Z</time>
      </trkpt>
      <trkpt lat="43.70435" lon="5.55626">
        <ele>286</ele>
        <time>2017-02-04T12:20:07Z</time>
      </trkpt>
      <trkpt lat="43.70434" lon="5.55625">
        <ele>286</ele>
        <time>2017-02-04T12:22:07Z</time>
      </trkpt>
      <trkpt lat="43.70431" lon="5.55623">
        <ele>286</ele>
        <time>2017-02-04T12:24:07Z</time>
      </trkpt>
      <trkpt lat="43.70429" lon="5.5562">
        <ele>286</ele>
        <time>2017-02-04T12:26:07Z</time>
      </trkpt>
      <trkpt lat="43.7043" lon="5.5562">
        <ele>286</ele>
        <time>2017-02-04T12:28:07Z</time>
      </trkpt>
      <trkpt lat="43.70414" lon="5.55598">
        <ele>286</ele>
        <time>2017-02-04T12:30:07Z</time>
      </trkpt>
      <trkpt lat="43.70398" lon="5.55574">
        <ele>286</ele>
        <time>2017-02-04T12:32:07Z</time>
      </trkpt>
      <trkpt lat="43.70382" lon="5.55544">
        <ele>287</ele>
        <time>2017-02-04T12:34:07Z</time>
      </trkpt>
      <trkpt lat="43.70363" lon="5.55516">
        <ele>288</ele>
        <time>2017-02-04T12:36:07Z</time>
      </trkpt>
      <trkpt lat="43.70346" lon="5.5549">
        <ele>291</ele>
        <time>2017-02-04T12:38:07Z</time>
      </trkpt>
      <trkpt lat="43.70329" lon="5.55465">
        <ele>296</ele>
        <time>2017-02-04T12:40:07Z</time>
      </trkpt>
      <trkpt lat="43.70322" lon="5.55457">
        <ele>299</ele>
        <time>2017-02-04T12:42:07Z</time>
      </trkpt>
      <trkpt lat="43.7032" lon="5.55458">
        <ele>300</ele>
        <time>2017-02-04T12:44:07Z</time>
      </trkpt>
      <trkpt lat="43.70309" lon="5.55472">
        <ele>301</ele>
        <time>2017-02-04T12:46:07Z</time>
      </trkpt>
      <trkpt lat="43.70302" lon="5.55482">
        <ele>302</ele>
        <time>2017-02-04T12:48:07Z</time>
      </trkpt>
      <trkpt lat="43.70294" lon="5.55491">
        <ele>303</ele>
        <time>2017-02-04T12:50:07Z</time>
      </trkpt>
      <trkpt lat="43.70276" lon="5.55516">
        <ele>306</ele>
        <time>2017-02-04T12:52:07Z</time>
      </trkpt>
      <trkpt lat="43.7027" lon="5.5552">
        <ele>308</ele>
        <time>2017-02-04T12:54:07Z</time>
      </trkpt>
      <trkpt lat="43.70269" lon="5.55507">
        <ele>309</ele>
        <time>2017-02-04T12:56:07Z</time>
      </trkpt>
      <trkpt lat="43.7028" lon="5.55475">
        <ele>308</ele>
        <time>2017-02-04T12:58:07Z</time>
      </trkpt>
      <trkpt lat="43.70295" lon="5.55445">
        <ele>308</ele>
        <time>2017-02-04T13:00:07Z</time>
      </trkpt>
      <trkpt lat="43.70301" lon="5.5543">
        <ele>308</ele>
        <time>2017-02-04T13:02:07Z</time>
      </trkpt>
      <trkpt lat="43.70318" lon="5.55385">
        <ele>307</ele>
        <time>2017-02-04T13:04:07Z</time>
      </trkpt>
      <trkpt lat="43.70328" lon="5.55357">
        <ele>308</ele>
        <time>2017-02-04T13:06:07Z</time>
      </trkpt>
      <trkpt lat="43.7033" lon="5.55349">
        <ele>308</ele>
        <time>2017-02-04T13:08:07Z</time>
      </trkpt>
      <trkpt lat="43.70332" lon="5.55325">
        <ele>309</ele>
        <time>2017-02-04T13:10:07Z</time>
      </trkpt>
      <trkpt lat="43.70328" lon="5.55318">
        <ele>310</ele>
        <time>2017-02-04T13:12:07Z</time>
      </trkpt>
      <trkpt lat="43.70324" lon="5.5531">
        <ele>311</ele>
        <time>2017-02-04T13:14:07Z</time>
      </trkpt>
      <trkpt lat="43.70313" lon="5.55296">
        <ele>312</ele>
        <time>2017-02-04T13:16:07Z</time>
      </trkpt>
      <trkpt lat="43.70309" lon="5.55293">
        <ele>313</ele>
        <time>2017-02-04T13:18:07Z</time>
      </trkpt>
      <trkpt lat="43.70305" lon="5.55287">
        <ele>314</ele>
        <time>2017-02-04T13:20:07Z</time>
      </trkpt>
      <trkpt lat="43.70292" lon="5.55262">
        <ele>315</ele>
        <time>2017-02-04T13:22:07Z</time>
      </trkpt>
      <trkpt lat="43.70288" lon="5.55255">
        <ele>315</ele>
        <time>2017-02-04T13:24:07Z</time>
      </trkpt>
      <trkpt lat="43.70273" lon="5.55244">
        <ele>316</ele>
        <time>2017-02-04T13:26:07Z</time>
      </trkpt>
      <trkpt lat="43.7027" lon="5.55242">
        <ele>316</ele>
        <time>2017-02-04T13:28:07Z</time>
      </trkpt>
      <trkpt lat="43.70263" lon="5.55233">
        <ele>316</ele>
        <time>2017-02-04T13:30:07Z</time>
      </trkpt>
      <trkpt lat="43.70262" lon="5.55218">
        <ele>315</ele>
        <time>2017-02-04T13:32:07Z</time>
      </trkpt>
      <trkpt lat="43.70262" lon="5.55212">
        <ele>314</ele>
        <time>2017-02-04T13:34:07Z</time>
      </trkpt>
      <trkpt lat="43.7027" lon="5.55189">
        <ele>311</ele>
        <time>2017-02-04T13:36:07Z</time>
      </trkpt>
      <trkpt lat="43.70282" lon="5.55167">
        <ele>308</ele>
        <time>2017-02-04T13:38:07Z</time>
      </trkpt>
      <trkpt lat="43.70283" lon="5.55165">
        <ele>307</ele>
        <time>2017-02-04T13:40:07Z</time>
      </trkpt>
      <trkpt lat="43.70286" lon="5.55159">
        <ele>306</ele>
        <time>2017-02-04T13:42:07Z</time>
      </trkpt>
      <trkpt lat="43.70292" lon="5.55158">
        <ele>305</ele>
        <time>2017-02-04T13:44:07Z</time>
      </trkpt>
      <trkpt lat="43.70294" lon="5.55154">
        <ele>304</ele>
        <time>2017-02-04T13:46:07Z</time>
      </trkpt>
      <trkpt lat="43.70305" lon="5.55147">
        <ele>302</ele>
        <time>2017-02-04T13:48:07Z</time>
      </trkpt>
      <trkpt lat="43.70315" lon="5.55138">
        <ele>299</ele>
        <time>2017-02-04T13:50:07Z</time>
      </trkpt>
      <trkpt lat="43.70317" lon="5.55132">
        <ele>298</ele>
        <time>2017-02-04T13:52:07Z</time>
      </trkpt>
      <trkpt lat="43.70317" lon="5.55131">
        <ele>298</ele>
        <time>2017-02-04T13:54:07Z</time>
      </trkpt>
      <trkpt lat="43.70301" lon="5.55123">
        <ele>299</ele>
        <time>2017-02-04T13:56:07Z</time>
      </trkpt>
      <trkpt lat="43.70283" lon="5.55114">
        <ele>299</ele>
        <time>2017-02-04T13:58:07Z</time>
      </trkpt>
      <trkpt lat="43.70281" lon="5.55112">
        <ele>299</ele>
        <time>2017-02-04T14:00:07Z</time>
      </trkpt>
      <trkpt lat="43.70273" lon="5.5511">
        <ele>300</ele>
        <time>2017-02-04T14:02:07Z</time>
      </trkpt>
      <trkpt lat="43.70263" lon="5.55106">
        <ele>301</ele>
        <time>2017-02-04T14:04:07Z</time>
      </trkpt>
      <trkpt lat="43.70258" lon="5.55081">
        <ele>298</ele>
        <time>2017-02-04T14:06:07Z</time>
      </trkpt>
      <trkpt lat="43.70259" lon="5.55044">
        <ele>297</ele>
        <time>2017-02-04T14:08:07Z</time>
      </trkpt>
      <trkpt lat="43.70254" lon="5.55027">
        <ele>297</ele>
        <time>2017-02-04T14:10:07Z</time>
      </trkpt>
      <trkpt lat="43.70254" lon="5.55023">
        <ele>297</ele>
        <time>2017-02-04T14:12:07Z</time>
      </trkpt>
      <trkpt lat="43.70255" lon="5.55022">
        <ele>297</ele>
        <time>2017-02-04T14:14:07Z</time>
      </trkpt>
      <trkpt lat="43.70255" lon="5.55022">
        <ele>297</ele>
        <time>2017-02-04T14:16:07Z</time>
      </trkpt>
      <trkpt lat="43.70258" lon="5.55015">
        <ele>296</ele>
        <time>2017-02-04T14:18:07Z</time>
      </trkpt>
      <trkpt lat="43.70261" lon="5.54972">
        <ele>295</ele>
        <time>2017-02-04T14:20:07Z</time>
      </trkpt>
      <trkpt lat="43.7026" lon="5.54964">
        <ele>295</ele>
        <time>2017-02-04T14:22:07Z</time>
      </trkpt>
      <trkpt lat="43.70256" lon="5.54958">
        <ele>296</ele>
        <time>2017-02-04T14:24:07Z</time>
      </trkpt>
      <trkpt lat="43.70254" lon="5.54957">
        <ele>296</ele>
        <time>2017-02-04T14:26:07Z</time>
      </trkpt>
      <trkpt lat="43.70252" lon="5.54957">
        <ele>297</ele>
        <time>2017-02-04T14:28:07Z</time>
      </trkpt>
      <trkpt lat="43.70246" lon="5.54958">
        <ele>297</ele>
        <time>2017-02-04T14:30:07Z</time>
      </trkpt>
      <trkpt lat="43.70239" lon="5.54959">
        <ele>298</ele>
        <time>2017-02-04T14:32:07Z</time>
      </trkpt>
      <trkpt lat="43.70216" lon="5.54957">
        <ele>301</ele>
        <time>2017-02-04T14:34:07Z</time>
      </trkpt>
      <trkpt lat="43.702" lon="5.54958">
        <ele>303</ele>
        <time>2017-02-04T14:36:07Z</time>
      </trkpt>
      <trkpt lat="43.70181" lon="5.54958">
        <ele>305</ele>
        <time>2017-02-04T14:38:07Z</time>
      </trkpt>
      <trkpt lat="43.70159" lon="5.54962">
        <ele>307</ele>
        <time>2017-02-04T14:40:07Z</time>
      </trkpt>
      <trkpt lat="43.7015" lon="5.54964">
        <ele>308</ele>
        <time>2017-02-04T14:42:07Z</time>
      </trkpt>
      <trkpt lat="43.70147" lon="5.54964">
        <ele>308</ele>
        <time>2017-02-04T14:44:07Z</time>
      </trkpt>
      <trkpt lat="43.70144" lon="5.54961">
        <ele>308</ele>
        <time>2017-02-04T14:46:07Z</time>
      </trkpt>
      <trkpt lat="43.70142" lon="5.54961">
        <ele>308</ele>
        <time>2017-02-04T14:48:07Z</time>
      </trkpt>
      <trkpt lat="43.70132" lon="5.54961">
        <ele>309</ele>
        <time>2017-02-04T14:50:07Z</time>
      </trkpt>
      <trkpt lat="43.70131" lon="5.54961">
        <ele>309</ele>
        <time>2017-02-04T14:52:07Z</time>
      </trkpt>
      <trkpt lat="43.70129" lon="5.54963">
        <ele>309</ele>
        <time>2017-02-04T14:54:07Z</time>
      </trkpt>
      <trkpt lat="43.70121" lon="5.54978">
        <ele>310</ele>
        <time>2017-02-04T14:56:07Z</time>
      </trkpt>
      <trkpt lat="43.70116" lon="5.54985">
        <ele>310</ele>
        <time>2017-02-04T14:58:07Z</time>
      </trkpt>
      <trkpt lat="43.70119" lon="5.54985">
        <ele>310</ele>
        <time>2017-02-04T15:00:07Z</time>
      </trkpt>
      <trkpt lat="43.70116" lon="5.54986">
        <ele>310</ele>
        <time>2017-02-04T15:02:07Z</time>
      </trkpt>
      <trkpt lat="43.70112" lon="5.54992">
        <ele>311</ele>
        <time>2017-02-04T15:04:07Z</time>
      </trkpt>
      <trkpt lat="43.70112" lon="5.54994">
        <ele>311</ele>
        <time>2017-02-04T15:06:07Z</time>
      </trkpt>
      <trkpt lat="43.70103" lon="5.5502">
        <ele>312</ele>
        <time>2017-02-04T15:08:07Z</time>
      </trkpt>
      <trkpt lat="43.70102" lon="5.55023">
        <ele>312</ele>
        <time>2017-02-04T15:10:07Z</time>
      </trkpt>
      <trkpt lat="43.701" lon="5.55028">
        <ele>312</ele>
        <time>2017-02-04T15:12:07Z</time>
      </trkpt>
      <trkpt lat="43.70099" lon="5.55029">
        <ele>312</ele>
        <time>2017-02-04T15:14:07Z</time>
      </trkpt>
      <trkpt lat="43.70093" lon="5.55032">
        <ele>313</ele>
        <time>2017-02-04T15:16:07Z</time>
      </trkpt>
      <trkpt lat="43.70071" lon="5.55055">
        <ele>315</ele>
        <time>2017-02-04T15:18:07Z</time>
      </trkpt>
      <trkpt lat="43.70062" lon="5.55063">
        <ele>317</ele>
        <time>2017-02-04T15:20:07Z</time>
      </trkpt>
      <trkpt lat="43.70052" lon="5.55081">
        <ele>319</ele>
        <time>2017-02-04T15:22:07Z</time>
      </trkpt>
      <trkpt lat="43.70045" lon="5.55101">
        <ele>321</ele>
        <time>2017-02-04T15:24:07Z</time>
      </trkpt>
      <trkpt lat="43.70044" lon="5.55106">
        <ele>321</ele>
        <time>2017-02-04T15:26:07Z</time>
      </trkpt>
      <trkpt lat="43.70044" lon="5.55111">
        <ele>321</ele>
        <time>2017-02-04T15:28:07Z</time>
      </trkpt>
      <trkpt lat="43.70044" lon="5.55114">
        <ele>321</ele>
        <time>2017-02-04T15:30:07Z</time>
      </trkpt>
      <trkpt lat="43.70044" lon="5.55118">
        <ele>322</ele>
        <time>2017-02-04T15:32:07Z</time>
      </trkpt>
      <trkpt lat="43.70046" lon="5.55125">
        <ele>321</ele>
        <time>2017-02-04T15:34:07Z</time>
      </trkpt>
      <trkpt lat="43.70047" lon="5.55134">
        <ele>321</ele>
        <time>2017-02-04T15:36:07Z</time>
      </trkpt>
      <trkpt lat="43.70048" lon="5.55141">
        <ele>321</ele>
        <time>2017-02-04T15:38:07Z</time>
      </trkpt>
      <trkpt lat="43.70046" lon="5.55177">
        <ele>323</ele>
        <time>2017-02-04T15:40:07Z</time>
      </trkpt>
      <trkpt lat="43.70049" lon="5.55211">
        <ele>325</ele>
        <time>2017-02-04T15:42:07Z</time>
      </trkpt>
      <trkpt lat="43.70048" lon="5.55227">
        <ele>326</ele>
        <time>2017-02-04T15:44:07Z</time>
      </trkpt>
      <trkpt lat="43.70048" lon="5.5523">
        <ele>327</ele>
        <time>2017-02-04T15:46:07Z</time>
      </trkpt>
      <trkpt lat="43.70047" lon="5.55244">
        <ele>328</ele>
        <time>2017-02-04T15:48:07Z</time>
      </trkpt>
      <trkpt lat="43.70047" lon="5.55272">
        <ele>330</ele>
        <time>2017-02-04T15:50:07Z</time>
      </trkpt>
      <trkpt lat="43.70049" lon="5.55302">
        <ele>332</ele>
        <time>2017-02-04T15:52:07Z</time>
      </trkpt>
      <trkpt lat="43.70051" lon="5.55312">
        <ele>332</ele>
        <time>2017-02-04T15:54:07Z</time>
      </trkpt>
      <trkpt lat="43.7005" lon="5.55315">
        <ele>333</ele>
        <time>2017-02-04T15:56:07Z</time>
      </trkpt>
      <trkpt lat="43.7005" lon="5.5532">
        <ele>333</ele>
        <time>2017-02-04T15:58:07Z</time>
      </trkpt>
      <trkpt lat="43.70051" lon="5.55326">
        <ele>333</ele>
        <time>2017-02-04T16:00:07Z</time>
      </trkpt>
      <trkpt lat="43.70051" lon="5.55332">
        <ele>334</ele>
        <time>2017-02-04T16:02:07Z</time>
      </trkpt>
      <trkpt lat="43.70052" lon="5.55359">
        <ele>335</ele>
        <time>2017-02-04T16:04:07Z</time>
      </trkpt>
      <trkpt lat="43.70054" lon="5.55372">
        <ele>336</ele>
        <time>2017-02-04T16:06:07Z</time>
      </trkpt>
      <trkpt lat="43.70052" lon="5.55374">
        <ele>337</ele>
        <time>2017-02-04T16:08:07Z</time>
      </trkpt>
      <trkpt lat="43.70051" lon="5.55373">
        <ele>337</ele>
        <time>2017-02-04T16:10:07Z</time>
      </trkpt>
      <trkpt lat="43.70042" lon="5.55354">
        <ele>336</ele>
        <time>2017-02-04T16:12:07Z</time>
      </trkpt>
      <trkpt lat="43.70032" lon="5.55336">
        <ele>336</ele>
        <time>2017-02-04T16:14:07Z</time>
      </trkpt>
      <trkpt lat="43.7002" lon="5.55315">
        <ele>337</ele>
        <time>2017-02-04T16:16:07Z</time>
      </trkpt>
      <trkpt lat="43.70012" lon="5.55299">
        <ele>337</ele>
        <time>2017-02-04T16:18:07Z</time>
      </trkpt>
      <trkpt lat="43.70009" lon="5.55294">
        <ele>337</ele>
        <time>2017-02-04T16:20:07Z</time>
      </trkpt>
      <trkpt lat="43.70002" lon="5.55282">
        <ele>337</ele>
        <time>2017-02-04T16:22:07Z</time>
      </trkpt>
      <trkpt lat="43.70001" lon="5.5528">
        <ele>337</ele>
        <time>2017-02-04T16:24:07Z</time>
      </trkpt>
      <trkpt lat="43.7" lon="5.55279">
        <ele>337</ele>
        <time>2017-02-04T16:26:07Z</time>
      </trkpt>
      <trkpt lat="43.69999" lon="5.55275">
        <ele>337</ele>
        <time>2017-02-04T16:28:07Z</time>
      </trkpt>
      <trkpt lat="43.7" lon="5.55269">
        <ele>337</ele>
        <time>2017-02-04T16:30:07Z</time>
      </trkpt>
      <trkpt lat="43.7" lon="5.55264">
        <ele>337</ele>
        <time>2017-02-04T16:32:07Z</time>
      </trkpt>
      <trkpt lat="43.69995" lon="5.55245">
        <ele>335</ele>
        <time>2017-02-04T16:34:07Z</time>
      </trkpt>
      <trkpt lat="43.69982" lon="5.55213">
        <ele>332</ele>
        <time>2017-02-04T16:36:07Z</time>
      </trkpt>
      <trkpt lat="43.69979" lon="5.55202">
        <ele>332</ele>
        <time>2017-02-04T16:38:07Z</time>
      </trkpt>
      <trkpt lat="43.69977" lon="5.55199">
        <ele>331</ele>
        <time>2017-02-04T16:40:07Z</time>
      </trkpt>
      <trkpt lat="43.69975" lon="5.5519">
        <ele>331</ele>
        <time>2017-02-04T16:42:07Z</time>
      </trkpt>
      <trkpt lat="43.69974" lon="5.55185">
        <ele>330</ele>
        <time>2017-02-04T16:44:07Z</time>
      </trkpt>
      <trkpt lat="43.69975" lon="5.5518">
        <ele>330</ele>
        <time>2017-02-04T16:46:07Z</time>
      </trkpt>
      <trkpt lat="43.69976" lon="5.55172">
        <ele>330</ele>
        <time>2017-02-04T16:48:07Z</time>
      </trkpt>
      <trkpt lat="43.69975" lon="5.55164">
        <ele>330</ele>
        <time>2017-02-04T16:50:07Z</time>
      </trkpt>
      <trkpt lat="43.69975" lon="5.55156">
        <ele>329</ele>
        <time>2017-02-04T16:52:07Z</time>
      </trkpt>
      <trkpt lat="43.69979" lon="5.55136">
        <ele>328</ele>
        <time>2017-02-04T16:54:07Z</time>
      </trkpt>
      <trkpt lat="43.69981" lon="5.55129">
        <ele>328</ele>
        <time>2017-02-04T16:56:07Z</time>
      </trkpt>
      <trkpt lat="43.69981" lon="5.55126">
        <ele>328</ele>
        <time>2017-02-04T16:58:07Z</time>
      </trkpt>
      <trkpt lat="43.6998" lon="5.55123">
        <ele>328</ele>
        <time>2017-02-04T17:00:07Z</time>
      </trkpt>
      <trkpt lat="43.69979" lon="5.55121">
        <ele>328</ele>
        <time>2017-02-04T17:02:07Z</time>
      </trkpt>
      <trkpt lat="43.69983" lon="5.55072">
        <ele>325</ele>
        <time>2017-02-04T17:04:07Z</time>
      </trkpt>
      <trkpt lat="43.69986" lon="5.5506">
        <ele>324</ele>
        <time>2017-02-04T17:06:07Z</time>
      </trkpt>
      <trkpt lat="43.69992" lon="5.55034">
        <ele>322</ele>
        <time>2017-02-04T17:08:07Z</time>
      </trkpt>
      <trkpt lat="43.69996" lon="5.55014">
        <ele>321</ele>
        <time>2017-02-04T17:10:07Z</time>
      </trkpt>
      <trkpt lat="43.69998" lon="5.5498">
        <ele>319</ele>
        <time>2017-02-04T17:12:07Z</time>
      </trkpt>
      <trkpt lat="43.70001" lon="5.54966">
        <ele>318</ele>
        <time>2017-02-04T17:14:07Z</time>
      </trkpt>
      <trkpt lat="43.7001" lon="5.54947">
        <ele>316</ele>
        <time>2017-02-04T17:16:07Z</time>
      </trkpt>
      <trkpt lat="43.70011" lon="5.54941">
        <ele>316</ele>
        <time>2017-02-04T17:18:07Z</time>
      </trkpt>
      <trkpt lat="43.70014" lon="5.54939">
        <ele>315</ele>
        <time>2017-02-04T17:20:07Z</time>
      </trkpt>
      <trkpt lat="43.70012" lon="5.54937">
        <ele>315</ele>
        <time>2017-02-04T17:22:07Z</time>
      </trkpt>
      <trkpt lat="43.70011" lon="5.5494">
        <ele>316</ele>
        <time>2017-02-04T17:24:07Z</time>
      </trkpt>
      <trkpt lat="43.70014" lon="5.54924">
        <ele>315</ele>
        <time>2017-02-04T17:26:07Z</time>
      </trkpt>
      <trkpt lat="43.70015" lon="5.54914">
        <ele>314</ele>
        <time>2017-02-04T17:28:07Z</time>
      </trkpt>
      <trkpt lat="43.70017" lon="5.54902">
        <ele>313</ele>
        <time>2017-02-04T17:30:07Z</time>
      </trkpt>
      <trkpt lat="43.70019" lon="5.54892">
        <ele>313</ele>
        <time>2017-02-04T17:32:07Z</time>
      </trkpt>
      <trkpt lat="43.70021" lon="5.54886">
        <ele>312</ele>
        <time>2017-02-04T17:34:07Z</time>
      </trkpt>
      <trkpt lat="43.70024" lon="5.54871">
        <ele>312</ele>
        <time>2017-02-04T17:36:07Z</time>
      </trkpt>
      <trkpt lat="43.70024" lon="5.54866">
        <ele>311</ele>
        <time>2017-02-04T17:38:07Z</time>
      </trkpt>
      <trkpt lat="43.70026" lon="5.54862">
        <ele>311</ele>
        <time>2017-02-04T17:40:07Z</time>
      </trkpt>
      <trkpt lat="43.70039" lon="5.54861">
        <ele>310</ele>
        <time>2017-02-04T17:42:07Z</time>
      </trkpt>
      <trkpt lat="43.70041" lon="5.54861">
        <ele>310</ele>
        <time>2017-02-04T17:44:07Z</time>
      </trkpt>
      <trkpt lat="43.70045" lon="5.54862">
        <ele>310</ele>
        <time>2017-02-04T17:46:07Z</time>
      </trkpt>
      <trkpt lat="43.70051" lon="5.54859">
        <ele>309</ele>
        <time>2017-02-04T17:48:07Z</time>
      </trkpt>
      <trkpt lat="43.7006" lon="5.54866">
        <ele>309</ele>
        <time>2017-02-04T17:50:07Z</time>
      </trkpt>
      <trkpt lat="43.70062" lon="5.54873">
        <ele>309</ele>
        <time>2017-02-04T17:52:07Z</time>
      </trkpt>
      <trkpt lat="43.70065" lon="5.54875">
        <ele>309</ele>
        <time>2017-02-04T17:54:07Z</time>
      </trkpt>
      <trkpt lat="43.70066" lon="5.54875">
        <ele>309</ele>
        <time>2017-02-04T17:56:07Z</time>
      </trkpt>
      <trkpt lat="43.70065" lon="5.54875">
        <ele>309</ele>
        <time>2017-02-04T17:58:07Z</time>
      </trkpt>
      <trkpt lat="43.70064" lon="5.54879">
        <ele>309</ele>
        <time>2017-02-04T18:00:07Z</time>
      </trkpt>
      <trkpt lat="43.70065" lon="5.54888">
        <ele>310</ele>
        <time>2017-02-04T18:02:07Z</time>
      </trkpt>
      <trkpt lat="43.70063" lon="5.54912">
        <ele>311</ele>
        <time>2017-02-04T18:04:07Z</time>
      </trkpt>
      <trkpt lat="43.7006" lon="5.54926">
        <ele>312</ele>
        <time>2017-02-04T18:06:07Z</time>
      </trkpt>
      <trkpt lat="43.70057" lon="5.54951">
        <ele>313</ele>
        <time>2017-02-04T18:08:07Z</time>
      </trkpt>
      <trkpt lat="43.70053" lon="5.55005">
        <ele>316</ele>
        <time>2017-02-04T18:10:07Z</time>
      </trkpt>
      <trkpt lat="43.70052" lon="5.55033">
        <ele>317</ele>
        <time>2017-02-04T18:12:07Z</time>
      </trkpt>
      <trkpt lat="43.7005" lon="5.55057">
        <ele>318</ele>
        <time>2017-02-04T18:14:07Z</time>
      </trkpt>
      <trkpt lat="43.70051" lon="5.5508">
        <ele>319</ele>
        <time>2017-02-04T18:16:07Z</time>
      </trkpt>
      <trkpt lat="43.70045" lon="5.55099">
        <ele>321</ele>
        <time>2017-02-04T18:18:07Z</time>
      </trkpt>
      <trkpt lat="43.70042" lon="5.55103">
        <ele>322</ele>
        <time>2017-02-04T18:20:07Z</time>
      </trkpt>
      <trkpt lat="43.70036" lon="5.55085">
        <ele>322</ele>
        <time>2017-02-04T18:22:07Z</time>
      </trkpt>
      <trkpt lat="43.70038" lon="5.55081">
        <ele>321</ele>
        <time>2017-02-04T18:24:07Z</time>
      </trkpt>
      <trkpt lat="43.70042" lon="5.55083">
        <ele>321</ele>
        <time>2017-02-04T18:26:07Z</time>
      </trkpt>
      <trkpt lat="43.70044" lon="5.55084">
        <ele>321</ele>
        <time>2017-02-04T18:28:07Z</time>
      </trkpt>
      <trkpt lat="43.70045" lon="5.55094">
        <ele>321</ele>
        <time>2017-02-04T18:30:07Z</time>
      </trkpt>
      <trkpt lat="43.70046" lon="5.55096">
        <ele>321</ele>
        <time>2017-02-04T18:32:07Z</time>
      </trkpt>
      <trkpt lat="43.70043" lon="5.55102">
        <ele>321</ele>
        <time>2017-02-04T18:34:07Z</time>
      </trkpt>
      <trkpt lat="43.70041" lon="5.55103">
        <ele>322</ele>
        <time>2017-02-04T18:36:07Z</time>
      </trkpt>
      <trkpt lat="43.7004" lon="5.55102">
        <ele>322</ele>
        <time>2017-02-04T18:38:07Z</time>
      </trkpt>
      <trkpt lat="43.7004" lon="5.55099">
        <ele>322</ele>
        <time>2017-02-04T18:40:07Z</time>
      </trkpt>
      <trkpt lat="43.7004" lon="5.55097">
        <ele>322</ele>
        <time>2017-02-04T18:42:07Z</time>
      </trkpt>
      <trkpt lat="43.70038" lon="5.55089">
        <ele>322</ele>
        <time>2017-02-04T18:44:07Z</time>
      </trkpt>
      <trkpt lat="43.70036" lon="5.55086">
        <ele>322</ele>
        <time>2017-02-04T18:46:07Z</time>
      </trkpt>
      <trkpt lat="43.70036" lon="5.55083">
        <ele>322</ele>
        <time>2017-02-04T18:48:07Z</time>
      </trkpt>
      <trkpt lat="43.70037" lon="5.5508">
        <ele>322</ele>
        <time>2017-02-04T18:50:07Z</time>
      </trkpt>
      <trkpt lat="43.70037" lon="5.55078">
        <ele>321</ele>
        <time>2017-02-04T18:52:07Z</time>
      </trkpt>
      <trkpt lat="43.70035" lon="5.55069">
        <ele>321</ele>
        <time>2017-02-04T18:54:07Z</time>
      </trkpt>
      <trkpt lat="43.70037" lon="5.55069">
        <ele>321</ele>
        <time>2017-02-04T18:56:07Z</time>
      </trkpt>
      <trkpt lat="43.70035" lon="5.55056">
        <ele>320</ele>
        <time>2017-02-04T18:58:07Z</time>
      </trkpt>
      <trkpt lat="43.70025" lon="5.55035">
        <ele>320</ele>
        <time>2017-02-04T19:00:07Z</time>
      </trkpt>
      <trkpt lat="43.70018" lon="5.55005">
        <ele>319</ele>
        <time>2017-02-04T19:02:07Z</time>
      </trkpt>
      <trkpt lat="43.70011" lon="5.54978">
        <ele>318</ele>
        <time>2017-02-04T19:04:07Z</time>
      </trkpt>
      <trkpt lat="43.70006" lon="5.54966">
        <ele>318</ele>
        <time>2017-02-04T19:06:07Z</time>
      </trkpt>
      <trkpt lat="43.7" lon="5.54976">
        <ele>319</ele>
        <time>2017-02-04T19:08:07Z</time>
      </trkpt>
      <trkpt lat="43.7" lon="5.54989">
        <ele>319</ele>
        <time>2017-02-04T19:10:07Z</time>
      </trkpt>
      <trkpt lat="43.69997" lon="5.55007">
        <ele>320</ele>
        <time>2017-02-04T19:12:07Z</time>
      </trkpt>
      <trkpt lat="43.69989" lon="5.55048">
        <ele>323</ele>
        <time>2017-02-04T19:14:07Z</time>
      </trkpt>
      <trkpt lat="43.69986" lon="5.55062">
        <ele>324</ele>
        <time>2017-02-04T19:16:07Z</time>
      </trkpt>
      <trkpt lat="43.69984" lon="5.55072">
        <ele>325</ele>
        <time>2017-02-04T19:18:07Z</time>
      </trkpt>
      <trkpt lat="43.69983" lon="5.55087">
        <ele>326</ele>
        <time>2017-02-04T19:20:07Z</time>
      </trkpt>
      <trkpt lat="43.69982" lon="5.55096">
        <ele>327</ele>
        <time>2017-02-04T19:22:07Z</time>
      </trkpt>
      <trkpt lat="43.69979" lon="5.55097">
        <ele>326</ele>
        <time>2017-02-04T19:24:07Z</time>
      </trkpt>
      <trkpt lat="43.6998" lon="5.551">
        <ele>327</ele>
        <time>2017-02-04T19:26:07Z</time>
      </trkpt>
      <trkpt lat="43.69981" lon="5.55105">
        <ele>327</ele>
        <time>2017-02-04T19:28:07Z</time>
      </trkpt>
      <trkpt lat="43.6998" lon="5.55109">
        <ele>327</ele>
        <time>2017-02-04T19:30:07Z</time>
      </trkpt>
      <trkpt lat="43.69981" lon="5.55117">
        <ele>328</ele>
        <time>2017-02-04T19:32:07Z</time>
      </trkpt>
      <trkpt lat="43.69978" lon="5.55138">
        <ele>328</ele>
        <time>2017-02-04T19:34:07Z</time>
      </trkpt>
      <trkpt lat="43.69975" lon="5.55152">
        <ele>329</ele>
        <time>2017-02-04T19:36:07Z</time>
      </trkpt>
      <trkpt lat="43.69976" lon="5.55164">
        <ele>330</ele>
        <time>2017-02-04T19:38:07Z</time>
      </trkpt>
      <trkpt lat="43.69975" lon="5.55167">
        <ele>330</ele>
        <time>2017-02-04T19:40:07Z</time>
      </trkpt>
      <trkpt lat="43.69974" lon="5.5517">
        <ele>330</ele>
        <time>2017-02-04T19:42:07Z</time>
      </trkpt>
      <trkpt lat="43.69975" lon="5.55186">
        <ele>330</ele>
        <time>2017-02-04T19:44:07Z</time>
      </trkpt>
      <trkpt lat="43.69977" lon="5.55191">
        <ele>331</ele>
        <time>2017-02-04T19:46:07Z</time>
      </trkpt>
      <trkpt lat="43.69977" lon="5.55195">
        <ele>331</ele>
        <time>2017-02-04T19:48:07Z</time>
      </trkpt>
      <trkpt lat="43.69978" lon="5.55198">
        <ele>331</ele>
        <time>2017-02-04T19:50:07Z</time>
      </trkpt>
      <trkpt lat="43.6998" lon="5.55201">
        <ele>332</ele>
        <time>2017-02-04T19:52:07Z</time>
      </trkpt>
      <trkpt lat="43.69985" lon="5.55211">
        <ele>333</ele>
        <time>2017-02-04T19:54:07Z</time>
      </trkpt>
      <trkpt lat="43.69987" lon="5.55217">
        <ele>333</ele>
        <time>2017-02-04T19:56:07Z</time>
      </trkpt>
      <trkpt lat="43.69989" lon="5.55223">
        <ele>334</ele>
        <time>2017-02-04T19:58:07Z</time>
      </trkpt>
      <trkpt lat="43.69999" lon="5.5525">
        <ele>336</ele>
        <time>2017-02-04T20:00:07Z</time>
      </trkpt>
      <trkpt lat="43.7" lon="5.55256">
        <ele>336</ele>
        <time>2017-02-04T20:02:07Z</time>
      </trkpt>
      <trkpt lat="43.7" lon="5.55263">
        <ele>337</ele>
        <time>2017-02-04T20:04:07Z</time>
      </trkpt>
      <trkpt lat="43.70001" lon="5.55274">
        <ele>337</ele>
        <time>2017-02-04T20:06:07Z</time>
      </trkpt>
      <trkpt lat="43.70002" lon="5.55277">
        <ele>337</ele>
        <time>2017-02-04T20:08:07Z</time>
      </trkpt>
      <trkpt lat="43.70005" lon="5.55281">
        <ele>337</ele>
        <time>2017-02-04T20:10:07Z</time>
      </trkpt>
      <trkpt lat="43.70006" lon="5.55282">
        <ele>337</ele>
        <time>2017-02-04T20:12:07Z</time>
      </trkpt>
      <trkpt lat="43.70006" lon="5.55285">
        <ele>337</ele>
        <time>2017-02-04T20:14:07Z</time>
      </trkpt>
      <trkpt lat="43.70006" lon="5.55292">
        <ele>337</ele>
        <time>2017-02-04T20:16:07Z</time>
      </trkpt>
      <trkpt lat="43.70005" lon="5.55303">
        <ele>338</ele>
        <time>2017-02-04T20:18:07Z</time>
      </trkpt>
      <trkpt lat="43.70005" lon="5.55306">
        <ele>338</ele>
        <time>2017-02-04T20:20:07Z</time>
      </trkpt>
      <trkpt lat="43.70005" lon="5.55322">
        <ele>339</ele>
        <time>2017-02-04T20:22:07Z</time>
      </trkpt>
      <trkpt lat="43.70005" lon="5.5533">
        <ele>339</ele>
        <time>2017-02-04T20:24:07Z</time>
      </trkpt>
      <trkpt lat="43.70006" lon="5.55351">
        <ele>340</ele>
        <time>2017-02-04T20:26:07Z</time>
      </trkpt>
      <trkpt lat="43.70005" lon="5.55352">
        <ele>341</ele>
        <time>2017-02-04T20:28:07Z</time>
      </trkpt>
      <trkpt lat="43.70003" lon="5.55357">
        <ele>341</ele>
        <time>2017-02-04T20:30:07Z</time>
      </trkpt>
      <trkpt lat="43.7" lon="5.55372">
        <ele>342</ele>
        <time>2017-02-04T20:32:07Z</time>
      </trkpt>
      <trkpt lat="43.69998" lon="5.55398">
        <ele>344</ele>
        <time>2017-02-04T20:34:07Z</time>
      </trkpt>
      <trkpt lat="43.69998" lon="5.55405">
        <ele>344</ele>
        <time>2017-02-04T20:36:07Z</time>
      </trkpt>
      <trkpt lat="43.69999" lon="5.55422">
        <ele>345</ele>
        <time>2017-02-04T20:38:07Z</time>
      </trkpt>
      <trkpt lat="43.69999" lon="5.55424">
        <ele>345</ele>
        <time>2017-02-04T20:40:07Z</time>
      </trkpt>
      <trkpt lat="43.69999" lon="5.55433">
        <ele>345</ele>
        <time>2017-02-04T20:42:07Z</time>
      </trkpt>
      <trkpt lat="43.70001" lon="5.55452">
        <ele>345</ele>
        <time>2017-02-04T20:44:07Z</time>
      </trkpt>
      <trkpt lat="43.70001" lon="5.55453">
        <ele>345</ele>
        <time>2017-02-04T20:46:07Z</time>
      </trkpt>
      <trkpt lat="43.70007" lon="5.55461">
        <ele>345</ele>
        <time>2017-02-04T20:48:07Z</time>
      </trkpt>
      <trkpt lat="43.70019" lon="5.55475">
        <ele>343</ele>
        <time>2017-02-04T20:50:07Z</time>
      </trkpt>
      <trkpt lat="43.70026" lon="5.55484">
        <ele>342</ele>
        <time>2017-02-04T20:52:07Z</time>
      </trkpt>
      <trkpt lat="43.70036" lon="5.55496">
        <ele>341</ele>
        <time>2017-02-04T20:54:07Z</time>
      </trkpt>
      <trkpt lat="43.70041" lon="5.55511">
        <ele>339</ele>
        <time>2017-02-04T20:56:07Z</time>
      </trkpt>
      <trkpt lat="43.70046" lon="5.55521">
        <ele>338</ele>
        <time>2017-02-04T20:58:07Z</time>
      </trkpt>
      <trkpt lat="43.70055" lon="5.55533">
        <ele>336</ele>
        <time>2017-02-04T21:00:07Z</time>
      </trkpt>
      <trkpt lat="43.70061" lon="5.55536">
        <ele>335</ele>
        <time>2017-02-04T21:02:07Z</time>
      </trkpt>
      <trkpt lat="43.70062" lon="5.5554">
        <ele>334</ele>
        <time>2017-02-04T21:04:07Z</time>
      </trkpt>
      <trkpt lat="43.70074" lon="5.55555">
        <ele>332</ele>
        <time>2017-02-04T21:06:07Z</time>
      </trkpt>
      <trkpt lat="43.70075" lon="5.55554">
        <ele>332</ele>
        <time>2017-02-04T21:08:07Z</time>
      </trkpt>
      <trkpt lat="43.7008" lon="5.55556">
        <ele>331</ele>
        <time>2017-02-04T21:10:07Z</time>
      </trkpt>
      <trkpt lat="43.70085" lon="5.55555">
        <ele>331</ele>
        <time>2017-02-04T21:12:07Z</time>
      </trkpt>
      <trkpt lat="43.70083" lon="5.55543">
        <ele>332</ele>
        <time>2017-02-04T21:14:07Z</time>
      </trkpt>
      <trkpt lat="43.70083" lon="5.55538">
        <ele>332</ele>
        <time>2017-02-04T21:16:07Z</time>
      </trkpt>
      <trkpt lat="43.70083" lon="5.55535">
        <ele>333</ele>
        <time>2017-02-04T21:18:07Z</time>
      </trkpt>
      <trkpt lat="43.70085" lon="5.55531">
        <ele>333</ele>
        <time>2017-02-04T21:20:07Z</time>
      </trkpt>
      <trkpt lat="43.70077" lon="5.55503">
        <ele>336</ele>
        <time>2017-02-04T21:22:07Z</time>
      </trkpt>
      <trkpt lat="43.70069" lon="5.55473">
        <ele>337</ele>
        <time>2017-02-04T21:24:07Z</time>
      </trkpt>
      <trkpt lat="43.70062" lon="5.55444">
        <ele>338</ele>
        <time>2017-02-04T21:26:07Z</time>
      </trkpt>
      <trkpt lat="43.70057" lon="5.55406">
        <ele>338</ele>
        <time>2017-02-04T21:28:07Z</time>
      </trkpt>
      <trkpt lat="43.70056" lon="5.554">
        <ele>338</ele>
        <time>2017-02-04T21:30:07Z</time>
      </trkpt>
      <trkpt lat="43.70054" lon="5.55394">
        <ele>338</ele>
        <time>2017-02-04T21:32:07Z</time>
      </trkpt>
      <trkpt lat="43.7004" lon="5.55358">
        <ele>337</ele>
        <time>2017-02-04T21:34:07Z</time>
      </trkpt>
      <trkpt lat="43.70031" lon="5.55337">
        <ele>337</ele>
        <time>2017-02-04T21:36:07Z</time>
      </trkpt>
      <trkpt lat="43.7002" lon="5.55316">
        <ele>337</ele>
        <time>2017-02-04T21:38:07Z</time>
      </trkpt>
      <trkpt lat="43.70013" lon="5.55302">
        <ele>337</ele>
        <time>2017-02-04T21:40:07Z</time>
      </trkpt>
      <trkpt lat="43.70012" lon="5.55302">
        <ele>337</ele>
        <time>2017-02-04T21:42:07Z</time>
      </trkpt>
      <trkpt lat="43.70012" lon="5.55304">
        <ele>337</ele>
        <time>2017-02-04T21:44:07Z</time>
      </trkpt>
      <trkpt lat="43.70011" lon="5.55305">
        <ele>337</ele>
        <time>2017-02-04T21:46:07Z</time>
      </trkpt>
      <trkpt lat="43.70009" lon="5.55316">
        <ele>338</ele>
        <time>2017-02-04T21:48:07Z</time>
      </trkpt>
      <trkpt lat="43.70008" lon="5.5532">
        <ele>338</ele>
        <time>2017-02-04T21:50:07Z</time>
      </trkpt>
      <trkpt lat="43.70008" lon="5.55323">
        <ele>338</ele>
        <time>2017-02-04T21:52:07Z</time>
      </trkpt>
      <trkpt lat="43.70008" lon="5.55326">
        <ele>339</ele>
        <time>2017-02-04T21:54:07Z</time>
      </trkpt>
      <trkpt lat="43.70008" lon="5.55329">
        <ele>339</ele>
        <time>2017-02-04T21:56:07Z</time>
      </trkpt>
      <trkpt lat="43.70006" lon="5.5535">
        <ele>340</ele>
        <time>2017-02-04T21:58:07Z</time>
      </trkpt>
      <trkpt lat="43.70004" lon="5.55355">
        <ele>341</ele>
        <time>2017-02-04T22:00:07Z</time>
      </trkpt>
      <trkpt lat="43.70001" lon="5.55364">
        <ele>342</ele>
        <time>2017-02-04T22:02:07Z</time>
      </trkpt>
      <trkpt lat="43.7" lon="5.55364">
        <ele>342</ele>
        <time>2017-02-04T22:04:07Z</time>
      </trkpt>
      <trkpt lat="43.69994" lon="5.55363">
        <ele>341</ele>
        <time>2017-02-04T22:06:07Z</time>
      </trkpt>
      <trkpt lat="43.69994" lon="5.55362">
        <ele>341</ele>
        <time>2017-02-04T22:08:07Z</time>
      </trkpt>
      <trkpt lat="43.69992" lon="5.55366">
        <ele>341</ele>
        <time>2017-02-04T22:10:07Z</time>
      </trkpt>
      <trkpt lat="43.69992" lon="5.55365">
        <ele>340</ele>
        <time>2017-02-04T22:12:07Z</time>
      </trkpt>
      <trkpt lat="43.69994" lon="5.55366">
        <ele>341</ele>
        <time>2017-02-04T22:14:07Z</time>
      </trkpt>
      <trkpt lat="43.69994" lon="5.55365">
        <ele>341</ele>
        <time>2017-02-04T22:16:07Z</time>
      </trkpt>
      <trkpt lat="43.69994" lon="5.55363">
        <ele>341</ele>
        <time>2017-02-04T22:18:07Z</time>
      </trkpt>
      <trkpt lat="43.69995" lon="5.55363">
        <ele>341</ele>
        <time>2017-02-04T22:20:07Z</time>
      </trkpt>
      <trkpt lat="43.69994" lon="5.55361">
        <ele>341</ele>
        <time>2017-02-04T22:22:07Z</time>
      </trkpt>
      <trkpt lat="43.69995" lon="5.55359">
        <ele>341</ele>
        <time>2017-02-04T22:24:07Z</time>
      </trkpt>
      <trkpt lat="43.69996" lon="5.55362">
        <ele>341</ele>
        <time>2017-02-04T22:26:07Z</time>
      </trkpt>
      <trkpt lat="43.69991" lon="5.55363">
        <ele>340</ele>
        <time>2017-02-04T22:28:07Z</time>
      </trkpt>
      <trkpt lat="43.69992" lon="5.55365">
        <ele>340</ele>
        <time>2017-02-04T22:30:07Z</time>
      </trkpt>
      <trkpt lat="43.69991" lon="5.55361">
        <ele>340</ele>
        <time>2017-02-04T22:32:07Z</time>
      </trkpt>
      <trkpt lat="43.69996" lon="5.55359">
        <ele>341</ele>
        <time>2017-02-04T22:34:07Z</time>
      </trkpt>
      <trkpt lat="43.69995" lon="5.55362">
        <ele>341</ele>
        <time>2017-02-04T22:36:07Z</time>
      </trkpt>
      <trkpt lat="43.69993" lon="5.55362">
        <ele>340</ele>
        <time>2017-02-04T22:38:07Z</time>
      </trkpt>
      <trkpt lat="43.69995" lon="5.55365">
        <ele>341</ele>
        <time>2017-02-04T22:40:07Z</time>
      </trkpt>
      <trkpt lat="43.69994" lon="5.55369">
        <ele>341</ele>
        <time>2017-02-04T22:42:07Z</time>
      </trkpt>
      <trkpt lat="43.69995" lon="5.55367">
        <ele>341</ele>
        <time>2017-02-04T22:44:07Z</time>
      </trkpt>
      <trkpt lat="43.69994" lon="5.55366">
        <ele>341</ele>
        <time>2017-02-04T22:46:07Z</time>
      </trkpt>
      <trkpt lat="43.69995" lon="5.55362">
        <ele>341</ele>
        <time>2017-02-04T22:48:07Z</time>
      </trkpt>
      <trkpt lat="43.69993" lon="5.55364">
        <ele>341</ele>
        <time>2017-02-04T22:50:07Z</time>
      </trkpt>
      <trkpt lat="43.69996" lon="5.55361">
        <ele>341</ele>
        <time>2017-02-04T22:52:07Z</time>
      </trkpt>
      <trkpt lat="43.69995" lon="5.55364">
        <ele>341</ele>
        <time>2017-02-04T22:54:07Z</time>
      </trkpt>
      <trkpt lat="43.69994" lon="5.55365">
        <ele>341</ele>
        <time>2017-02-04T22:56:07Z</time>
      </trkpt>
      <trkpt lat="43.69992" lon="5.55365">
        <ele>340</ele>
        <time>2017-02-04T22:58:07Z</time>
      </trkpt>
      <trkpt lat="43.69993" lon="5.55361">
        <ele>340</ele>
        <time>2017-02-04T23:00:07Z</time>
      </trkpt>
      <trkpt lat="43.69997" lon="5.55361">
        <ele>341</ele>
        <time>2017-02-04T23:02:07Z</time>
      </trkpt>
      <trkpt lat="43.69995" lon="5.55363">
        <ele>341</ele>
        <time>2017-02-04T23:04:07Z</time>
      </trkpt>
      <trkpt lat="43.69992" lon="5.55364">
        <ele>340</ele>
        <time>2017-02-04T23:06:07Z</time>
      </trkpt>
      <trkpt lat="43.69993" lon="5.55362">
        <ele>340</ele>
        <time>2017-02-04T23:08:07Z</time>
      </trkpt>
      <trkpt lat="43.69992" lon="5.55363">
        <ele>340</ele>
        <time>2017-02-04T23:10:07Z</time>
      </trkpt>
      <trkpt lat="43.69993" lon="5.55361">
        <ele>340</ele>
        <time>2017-02-04T23:12:07Z</time>
      </trkpt>
      <trkpt lat="43.69992" lon="5.55364">
        <ele>340</ele>
        <time>2017-02-04T23:14:07Z</time>
      </trkpt>
      <trkpt lat="43.69993" lon="5.55362">
        <ele>340</ele>
        <time>2017-02-04T23:16:07Z</time>
      </trkpt>
      <trkpt lat="43.69992" lon="5.55363">
        <ele>340</ele>
        <time>2017-02-04T23:18:07Z</time>
      </trkpt>
      <trkpt lat="43.69991" lon="5.5536">
        <ele>340</ele>
        <time>2017-02-04T23:20:07Z</time>
      </trkpt>
      <trkpt lat="43.6999" lon="5.55361">
        <ele>340</ele>
        <time>2017-02-04T23:22:07Z</time>
      </trkpt>
      <trkpt lat="43.69991" lon="5.55362">
        <ele>340</ele>
        <time>2017-02-04T23:24:07Z</time>
      </trkpt>
      <trkpt lat="43.6999" lon="5.55363">
        <ele>340</ele>
        <time>2017-02-04T23:26:07Z</time>
      </trkpt>
      <trkpt lat="43.69991" lon="5.5536">
        <ele>340</ele>
        <time>2017-02-04T23:28:07Z</time>
      </trkpt>
      <trkpt lat="43.69991" lon="5.55363">
        <ele>340</ele>
        <time>2017-02-04T23:30:07Z</time>
      </trkpt>
      <trkpt lat="43.6999" lon="5.55365">
        <ele>340</ele>
        <time>2017-02-04T23:32:07Z</time>
      </trkpt>
      <trkpt lat="43.6999" lon="5.55367">
        <ele>340</ele>
        <time>2017-02-04T23:34:07Z</time>
      </trkpt>
      <trkpt lat="43.69992" lon="5.55365">
        <ele>340</ele>
        <time>2017-02-04T23:36:07Z</time>
      </trkpt>
      <trkpt lat="43.69994" lon="5.55366">
        <ele>341</ele>
        <time>2017-02-04T23:38:07Z</time>
      </trkpt>
      <trkpt lat="43.69993" lon="5.55366">
        <ele>341</ele>
        <time>2017-02-04T23:40:07Z</time>
      </trkpt>
      <trkpt lat="43.69995" lon="5.55363">
        <ele>341</ele>
        <time>2017-02-04T23:42:07Z</time>
      </trkpt>
      <trkpt lat="43.69995" lon="5.55363">
        <ele>341</ele>
        <time>2017-02-04T23:44:07Z</time>
      </trkpt>
      <trkpt lat="43.69998" lon="5.55367">
        <ele>342</ele>
        <time>2017-02-04T23:46:07Z</time>
      </trkpt>
      <trkpt lat="43.7" lon="5.55369">
        <ele>342</ele>
        <time>2017-02-04T23:48:07Z</time>
      </trkpt>
      <trkpt lat="43.70001" lon="5.55368">
        <ele>342</ele>
        <time>2017-02-04T23:50:07Z</time>
      </trkpt>
      <trkpt lat="43.7" lon="5.5537">
        <ele>342</ele>
        <time>2017-02-04T23:52:07Z</time>
      </trkpt>
      <trkpt lat="43.7" lon="5.55382">
        <ele>343</ele>
        <time>2017-02-04T23:54:07Z</time>
      </trkpt>
      <trkpt lat="43.69998" lon="5.55384">
        <ele>343</ele>
        <time>2017-02-04T23:56:07Z</time>
      </trkpt>
      <trkpt lat="43.69997" lon="5.55392">
        <ele>343</ele>
        <time>2017-02-04T23:58:07Z</time>
      </trkpt>
      <trkpt lat="43.7" lon="5.55423">
        <ele>345</ele>
        <time>2017-02-05T00:00:07Z</time>
      </trkpt>
      <trkpt lat="43.70002" lon="5.55443">
        <ele>345</ele>
        <time>2017-02-05T00:02:07Z</time>
      </trkpt>
      <trkpt lat="43.70008" lon="5.55462">
        <ele>345</ele>
        <time>2017-02-05T00:04:07Z</time>
      </trkpt>
      <trkpt lat="43.7001" lon="5.55464">
        <ele>344</ele>
        <time>2017-02-05T00:06:07Z</time>
      </trkpt>
      <trkpt lat="43.70019" lon="5.55474">
        <ele>343</ele>
        <time>2017-02-05T00:08:07Z</time>
      </trkpt>
      <trkpt lat="43.7003" lon="5.55489">
        <ele>342</ele>
        <time>2017-02-05T00:10:07Z</time>
      </trkpt>
      <trkpt lat="43.70032" lon="5.55491">
        <ele>342</ele>
        <time>2017-02-05T00:12:07Z</time>
      </trkpt>
      <trkpt lat="43.70033" lon="5.55498">
        <ele>342</ele>
        <time>2017-02-05T00:14:07Z</time>
      </trkpt>
      <trkpt lat="43.70035" lon="5.55504">
        <ele>341</ele>
        <time>2017-02-05T00:16:07Z</time>
      </trkpt>
      <trkpt lat="43.70037" lon="5.55506">
        <ele>340</ele>
        <time>2017-02-05T00:18:07Z</time>
      </trkpt>
      <trkpt lat="43.70039" lon="5.55503">
        <ele>341</ele>
        <time>2017-02-05T00:20:07Z</time>
      </trkpt>
      <trkpt lat="43.70037" lon="5.55506">
        <ele>340</ele>
        <time>2017-02-05T00:22:07Z</time>
      </trkpt>
      <trkpt lat="43.70037" lon="5.55506">
        <ele>340</ele>
        <time>2017-02-05T00:24:07Z</time>
      </trkpt>
      <trkpt lat="43.70035" lon="5.55512">
        <ele>340</ele>
        <time>2017-02-05T00:26:07Z</time>
      </trkpt>
      <trkpt lat="43.70035" lon="5.55515">
        <ele>340</ele>
        <time>2017-02-05T00:28:07Z</time>
      </trkpt>
      <trkpt lat="43.70034" lon="5.55527">
        <ele>339</ele>
        <time>2017-02-05T00:30:07Z</time>
      </trkpt>
      <trkpt lat="43.70027" lon="5.5553">
        <ele>339</ele>
        <time>2017-02-05T00:32:07Z</time>
      </trkpt>
      <trkpt lat="43.70019" lon="5.55528">
        <ele>340</ele>
        <time>2017-02-05T00:34:07Z</time>
      </trkpt>
      <trkpt lat="43.70008" lon="5.5553">
        <ele>341</ele>
        <time>2017-02-05T00:36:07Z</time>
      </trkpt>
      <trkpt lat="43.70007" lon="5.55531">
        <ele>341</ele>
        <time>2017-02-05T00:38:07Z</time>
      </trkpt>
      <trkpt lat="43.7001" lon="5.55529">
        <ele>341</ele>
        <time>2017-02-05T00:40:07Z</time>
      </trkpt>
      <trkpt lat="43.70014" lon="5.5553">
        <ele>340</ele>
        <time>2017-02-05T00:42:07Z</time>
      </trkpt>
      <trkpt lat="43.70016" lon="5.55529">
        <ele>340</ele>
        <time>2017-02-05T00:44:07Z</time>
      </trkpt>
      <trkpt lat="43.70024" lon="5.55533">
        <ele>339</ele>
        <time>2017-02-05T00:46:07Z</time>
      </trkpt>
      <trkpt lat="43.70028" lon="5.55535">
        <ele>338</ele>
        <time>2017-02-05T00:48:07Z</time>
      </trkpt>
      <trkpt lat="43.70031" lon="5.55538">
        <ele>338</ele>
        <time>2017-02-05T00:50:07Z</time>
      </trkpt>
      <trkpt lat="43.70032" lon="5.55543">
        <ele>337</ele>
        <time>2017-02-05T00:52:07Z</time>
      </trkpt>
      <trkpt lat="43.70031" lon="5.55548">
        <ele>337</ele>
        <time>2017-02-05T00:54:07Z</time>
      </trkpt>
      <trkpt lat="43.70035" lon="5.55556">
        <ele>335</ele>
        <time>2017-02-05T00:56:07Z</time>
      </trkpt>
      <trkpt lat="43.70048" lon="5.5557">
        <ele>333</ele>
        <time>2017-02-05T00:58:07Z</time>
      </trkpt>
      <trkpt lat="43.7005" lon="5.55573">
        <ele>332</ele>
        <time>2017-02-05T01:00:07Z</time>
      </trkpt>
      <trkpt lat="43.70053" lon="5.55587">
        <ele>331</ele>
        <time>2017-02-05T01:02:07Z</time>
      </trkpt>
      <trkpt lat="43.70055" lon="5.55591">
        <ele>330</ele>
        <time>2017-02-05T01:04:07Z</time>
      </trkpt>
      <trkpt lat="43.7006" lon="5.55597">
        <ele>329</ele>
        <time>2017-02-05T01:06:07Z</time>
      </trkpt>
      <trkpt lat="43.70063" lon="5.55597">
        <ele>329</ele>
        <time>2017-02-05T01:08:07Z</time>
      </trkpt>
      <trkpt lat="43.70068" lon="5.55595">
        <ele>329</ele>
        <time>2017-02-05T01:10:07Z</time>
      </trkpt>
      <trkpt lat="43.70085" lon="5.55592">
        <ele>328</ele>
        <time>2017-02-05T01:12:07Z</time>
      </trkpt>
      <trkpt lat="43.70086" lon="5.55591">
        <ele>328</ele>
        <time>2017-02-05T01:14:07Z</time>
      </trkpt>
      <trkpt lat="43.70087" lon="5.55589">
        <ele>328</ele>
        <time>2017-02-05T01:16:07Z</time>
      </trkpt>
      <trkpt lat="43.7009" lon="5.5557">
        <ele>329</ele>
        <time>2017-02-05T01:18:07Z</time>
      </trkpt>
      <trkpt lat="43.70088" lon="5.55564">
        <ele>330</ele>
        <time>2017-02-05T01:20:07Z</time>
      </trkpt>
      <trkpt lat="43.70084" lon="5.55534">
        <ele>332</ele>
        <time>2017-02-05T01:22:07Z</time>
      </trkpt>
      <trkpt lat="43.70085" lon="5.55532">
        <ele>333</ele>
        <time>2017-02-05T01:24:07Z</time>
      </trkpt>
      <trkpt lat="43.70085" lon="5.55531">
        <ele>333</ele>
        <time>2017-02-05T01:26:07Z</time>
      </trkpt>
      <trkpt lat="43.70099" lon="5.55524">
        <ele>332</ele>
        <time>2017-02-05T01:28:07Z</time>
      </trkpt>
      <trkpt lat="43.70142" lon="5.55501">
        <ele>330</ele>
        <time>2017-02-05T01:30:07Z</time>
      </trkpt>
      <trkpt lat="43.70136" lon="5.55479">
        <ele>332</ele>
        <time>2017-02-05T01:32:07Z</time>
      </trkpt>
      <trkpt lat="43.7012" lon="5.55436">
        <ele>335</ele>
        <time>2017-02-05T01:34:07Z</time>
      </trkpt>
      <trkpt lat="43.70116" lon="5.55413">
        <ele>335</ele>
        <time>2017-02-05T01:36:07Z</time>
      </trkpt>
      <trkpt lat="43.70115" lon="5.55405">
        <ele>335</ele>
        <time>2017-02-05T01:38:07Z</time>
      </trkpt>
      <trkpt lat="43.70113" lon="5.55395">
        <ele>335</ele>
        <time>2017-02-05T01:40:07Z</time>
      </trkpt>
      <trkpt lat="43.70116" lon="5.55417">
        <ele>336</ele>
        <time>2017-02-05T01:42:07Z</time>
      </trkpt>
      <trkpt lat="43.70118" lon="5.55418">
        <ele>336</ele>
        <time>2017-02-05T01:44:07Z</time>
      </trkpt>
      <trkpt lat="43.70119" lon="5.55419">
        <ele>335</ele>
        <time>2017-02-05T01:46:07Z</time>
      </trkpt>
      <trkpt lat="43.70121" lon="5.5542">
        <ele>335</ele>
        <time>2017-02-05T01:48:07Z</time>
      </trkpt>
      <trkpt lat="43.70125" lon="5.5542">
        <ele>335</ele>
        <time>2017-02-05T01:50:07Z</time>
      </trkpt>
      <trkpt lat="43.70128" lon="5.5542">
        <ele>335</ele>
        <time>2017-02-05T01:52:07Z</time>
      </trkpt>
      <trkpt lat="43.7013" lon="5.55421">
        <ele>335</ele>
        <time>2017-02-05T01:54:07Z</time>
      </trkpt>
      <trkpt lat="43.70129" lon="5.55422">
        <ele>335</ele>
        <time>2017-02-05T01:56:07Z</time>
      </trkpt>
      <trkpt lat="43.70129" lon="5.55419">
        <ele>335</ele>
        <time>2017-02-05T01:58:07Z</time>
      </trkpt>
      <trkpt lat="43.70127" lon="5.5542">
        <ele>335</ele>
        <time>2017-02-05T02:00:07Z</time>
      </trkpt>
      <trkpt lat="43.70131" lon="5.55421">
        <ele>335</ele>
        <time>2017-02-05T02:02:07Z</time>
      </trkpt>
      <trkpt lat="43.70131" lon="5.55419">
        <ele>335</ele>
        <time>2017-02-05T02:04:07Z</time>
      </trkpt>
      <trkpt lat="43.70131" lon="5.5542">
        <ele>335</ele>
        <time>2017-02-05T02:06:07Z</time>
      </trkpt>
      <trkpt lat="43.70131" lon="5.55421">
        <ele>335</ele>
        <time>2017-02-05T02:08:07Z</time>
      </trkpt>
      <trkpt lat="43.70131" lon="5.55422">
        <ele>335</ele>
        <time>2017-02-05T02:10:07Z</time>
      </trkpt>
      <trkpt lat="43.70132" lon="5.5542">
        <ele>335</ele>
        <time>2017-02-05T02:12:07Z</time>
      </trkpt>
      <trkpt lat="43.70138" lon="5.55422">
        <ele>335</ele>
        <time>2017-02-05T02:14:07Z</time>
      </trkpt>
      <trkpt lat="43.70142" lon="5.55415">
        <ele>335</ele>
        <time>2017-02-05T02:16:07Z</time>
      </trkpt>
      <trkpt lat="43.7015" lon="5.55408">
        <ele>335</ele>
        <time>2017-02-05T02:18:07Z</time>
      </trkpt>
      <trkpt lat="43.70152" lon="5.55402">
        <ele>335</ele>
        <time>2017-02-05T02:20:07Z</time>
      </trkpt>
      <trkpt lat="43.70156" lon="5.554">
        <ele>335</ele>
        <time>2017-02-05T02:22:07Z</time>
      </trkpt>
      <trkpt lat="43.70165" lon="5.55388">
        <ele>335</ele>
        <time>2017-02-05T02:24:07Z</time>
      </trkpt>
      <trkpt lat="43.70167" lon="5.55388">
        <ele>335</ele>
        <time>2017-02-05T02:26:07Z</time>
      </trkpt>
      <trkpt lat="43.70181" lon="5.55381">
        <ele>333</ele>
        <time>2017-02-05T02:28:07Z</time>
      </trkpt>
      <trkpt lat="43.70189" lon="5.55386">
        <ele>331</ele>
        <time>2017-02-05T02:30:07Z</time>
      </trkpt>
      <trkpt lat="43.70193" lon="5.55387">
        <ele>331</ele>
        <time>2017-02-05T02:32:07Z</time>
      </trkpt>
      <trkpt lat="43.702" lon="5.55388">
        <ele>330</ele>
        <time>2017-02-05T02:34:07Z</time>
      </trkpt>
      <trkpt lat="43.70209" lon="5.55396">
        <ele>329</ele>
        <time>2017-02-05T02:36:07Z</time>
      </trkpt>
      <trkpt lat="43.70218" lon="5.554">
        <ele>327</ele>
        <time>2017-02-05T02:38:07Z</time>
      </trkpt>
      <trkpt lat="43.7022" lon="5.55405">
        <ele>327</ele>
        <time>2017-02-05T02:40:07Z</time>
      </trkpt>
      <trkpt lat="43.70221" lon="5.55402">
        <ele>327</ele>
        <time>2017-02-05T02:42:07Z</time>
      </trkpt>
      <trkpt lat="43.70223" lon="5.55405">
        <ele>326</ele>
        <time>2017-02-05T02:44:07Z</time>
      </trkpt>
      <trkpt lat="43.7022" lon="5.55406">
        <ele>327</ele>
        <time>2017-02-05T02:46:07Z</time>
      </trkpt>
      <trkpt lat="43.70228" lon="5.55408">
        <ele>326</ele>
        <time>2017-02-05T02:48:07Z</time>
      </trkpt>
      <trkpt lat="43.70239" lon="5.55413">
        <ele>324</ele>
        <time>2017-02-05T02:50:07Z</time>
      </trkpt>
      <trkpt lat="43.7024" lon="5.55413">
        <ele>324</ele>
        <time>2017-02-05T02:52:07Z</time>
      </trkpt>
      <trkpt lat="43.70248" lon="5.55406">
        <ele>323</ele>
        <time>2017-02-05T02:54:07Z</time>
      </trkpt>
      <trkpt lat="43.70255" lon="5.55408">
        <ele>321</ele>
        <time>2017-02-05T02:56:07Z</time>
      </trkpt>
      <trkpt lat="43.70258" lon="5.55411">
        <ele>320</ele>
        <time>2017-02-05T02:58:07Z</time>
      </trkpt>
      <trkpt lat="43.70264" lon="5.55407">
        <ele>319</ele>
        <time>2017-02-05T03:00:07Z</time>
      </trkpt>
      <trkpt lat="43.70268" lon="5.55409">
        <ele>318</ele>
        <time>2017-02-05T03:02:07Z</time>
      </trkpt>
      <trkpt lat="43.70264" lon="5.55411">
        <ele>319</ele>
        <time>2017-02-05T03:04:07Z</time>
      </trkpt>
      <trkpt lat="43.70264" lon="5.55414">
        <ele>319</ele>
        <time>2017-02-05T03:06:07Z</time>
      </trkpt>
      <trkpt lat="43.70253" lon="5.55435">
        <ele>319</ele>
        <time>2017-02-05T03:08:07Z</time>
      </trkpt>
      <trkpt lat="43.70246" lon="5.55439">
        <ele>320</ele>
        <time>2017-02-05T03:10:07Z</time>
      </trkpt>
      <trkpt lat="43.70243" lon="5.55443">
        <ele>321</ele>
        <time>2017-02-05T03:12:07Z</time>
      </trkpt>
      <trkpt lat="43.70249" lon="5.55452">
        <ele>319</ele>
        <time>2017-02-05T03:14:07Z</time>
      </trkpt>
      <trkpt lat="43.70252" lon="5.55455">
        <ele>318</ele>
        <time>2017-02-05T03:16:07Z</time>
      </trkpt>
      <trkpt lat="43.70263" lon="5.55456">
        <ele>315</ele>
        <time>2017-02-05T03:18:07Z</time>
      </trkpt>
      <trkpt lat="43.70265" lon="5.55454">
        <ele>314</ele>
        <time>2017-02-05T03:20:07Z</time>
      </trkpt>
      <trkpt lat="43.70277" lon="5.55436">
        <ele>313</ele>
        <time>2017-02-05T03:22:07Z</time>
      </trkpt>
      <trkpt lat="43.70283" lon="5.55423">
        <ele>313</ele>
        <time>2017-02-05T03:24:07Z</time>
      </trkpt>
      <trkpt lat="43.70289" lon="5.55424">
        <ele>311</ele>
        <time>2017-02-05T03:26:07Z</time>
      </trkpt>
      <trkpt lat="43.70292" lon="5.5543">
        <ele>310</ele>
        <time>2017-02-05T03:28:07Z</time>
      </trkpt>
      <trkpt lat="43.70296" lon="5.5544">
        <ele>308</ele>
        <time>2017-02-05T03:30:07Z</time>
      </trkpt>
      <trkpt lat="43.70292" lon="5.55456">
        <ele>307</ele>
        <time>2017-02-05T03:32:07Z</time>
      </trkpt>
      <trkpt lat="43.70291" lon="5.55462">
        <ele>307</ele>
        <time>2017-02-05T03:34:07Z</time>
      </trkpt>
      <trkpt lat="43.7029" lon="5.5546">
        <ele>307</ele>
        <time>2017-02-05T03:36:07Z</time>
      </trkpt>
      <trkpt lat="43.70292" lon="5.55458">
        <ele>307</ele>
        <time>2017-02-05T03:38:07Z</time>
      </trkpt>
      <trkpt lat="43.70292" lon="5.55458">
        <ele>307</ele>
        <time>2017-02-05T03:40:07Z</time>
      </trkpt>
      <trkpt lat="43.70292" lon="5.55459">
        <ele>307</ele>
        <time>2017-02-05T03:42:07Z</time>
      </trkpt>
      <trkpt lat="43.7029" lon="5.5546">
        <ele>307</ele>
        <time>2017-02-05T03:44:07Z</time>
      </trkpt>
      <trkpt lat="43.7029" lon="5.55459">
        <ele>307</ele>
        <time>2017-02-05T03:46:07Z</time>
      </trkpt>
      <trkpt lat="43.7029" lon="5.55459">
        <ele>307</ele>
        <time>2017-02-05T03:48:07Z</time>
      </trkpt>
      <trkpt lat="43.70281" lon="5.55477">
        <ele>308</ele>
        <time>2017-02-05T03:50:07Z</time>
      </trkpt>
      <trkpt lat="43.70279" lon="5.55484">
        <ele>308</ele>
        <time>2017-02-05T03:52:07Z</time>
      </trkpt>
      <trkpt lat="43.70269" lon="5.55511">
        <ele>308</ele>
        <time>2017-02-05T03:54:07Z</time>
      </trkpt>
      <trkpt lat="43.70274" lon="5.55516">
        <ele>307</ele>
        <time>2017-02-05T03:56:07Z</time>
      </trkpt>
      <trkpt lat="43.70285" lon="5.55501">
        <ele>304</ele>
        <time>2017-02-05T03:58:07Z</time>
      </trkpt>
      <trkpt lat="43.70297" lon="5.55485">
        <ele>303</ele>
        <time>2017-02-05T04:00:07Z</time>
      </trkpt>
      <trkpt lat="43.70298" lon="5.55482">
        <ele>303</ele>
        <time>2017-02-05T04:02:07Z</time>
      </trkpt>
      <trkpt lat="43.70292" lon="5.55482">
        <ele>304</ele>
        <time>2017-02-05T04:04:07Z</time>
      </trkpt>
      <trkpt lat="43.70292" lon="5.55481">
        <ele>304</ele>
        <time>2017-02-05T04:06:07Z</time>
      </trkpt>
      <trkpt lat="43.70294" lon="5.55481">
        <ele>304</ele>
        <time>2017-02-05T04:08:07Z</time>
      </trkpt>
      <trkpt lat="43.70298" lon="5.55483">
        <ele>303</ele>
        <time>2017-02-05T04:10:07Z</time>
      </trkpt>
      <trkpt lat="43.70316" lon="5.55459">
        <ele>300</ele>
        <time>2017-02-05T04:12:07Z</time>
      </trkpt>
      <trkpt lat="43.70329" lon="5.55443">
        <ele>299</ele>
        <time>2017-02-05T04:14:07Z</time>
      </trkpt>
      <trkpt lat="43.7033" lon="5.55441">
        <ele>299</ele>
        <time>2017-02-05T04:16:07Z</time>
      </trkpt>
      <trkpt lat="43.70336" lon="5.55409">
        <ele>301</ele>
        <time>2017-02-05T04:18:07Z</time>
      </trkpt>
      <trkpt lat="43.70352" lon="5.55376">
        <ele>300</ele>
        <time>2017-02-05T04:20:07Z</time>
      </trkpt>
      <trkpt lat="43.70356" lon="5.55371">
        <ele>300</ele>
        <time>2017-02-05T04:22:07Z</time>
      </trkpt>
      <trkpt lat="43.70375" lon="5.55376">
        <ele>294</ele>
        <time>2017-02-05T04:24:07Z</time>
      </trkpt>
      <trkpt lat="43.70388" lon="5.55362">
        <ele>292</ele>
        <time>2017-02-05T04:26:07Z</time>
      </trkpt>
      <trkpt lat="43.70404" lon="5.55312">
        <ele>290</ele>
        <time>2017-02-05T04:28:07Z</time>
      </trkpt>
      <trkpt lat="43.70415" lon="5.55271">
        <ele>289</ele>
        <time>2017-02-05T04:30:07Z</time>
      </trkpt>
      <trkpt lat="43.70428" lon="5.55243">
        <ele>288</ele>
        <time>2017-02-05T04:32:07Z</time>
      </trkpt>
      <trkpt lat="43.70437" lon="5.55223">
        <ele>286</ele>
        <time>2017-02-05T04:34:07Z</time>
      </trkpt>
      <trkpt lat="43.70442" lon="5.55213">
        <ele>285</ele>
        <time>2017-02-05T04:36:07Z</time>
      </trkpt>
      <trkpt lat="43.70444" lon="5.5521">
        <ele>284</ele>
        <time>2017-02-05T04:38:07Z</time>
      </trkpt>
      <trkpt lat="43.70448" lon="5.55209">
        <ele>283</ele>
        <time>2017-02-05T04:40:07Z</time>
      </trkpt>
      <trkpt lat="43.70461" lon="5.55208">
        <ele>281</ele>
        <time>2017-02-05T04:42:07Z</time>
      </trkpt>
      <trkpt lat="43.70465" lon="5.55209">
        <ele>281</ele>
        <time>2017-02-05T04:44:07Z</time>
      </trkpt>
      <trkpt lat="43.70471" lon="5.55214">
        <ele>280</ele>
        <time>2017-02-05T04:46:07Z</time>
      </trkpt>
      <trkpt lat="43.7048" lon="5.5522">
        <ele>279</ele>
        <time>2017-02-05T04:48:07Z</time>
      </trkpt>
      <trkpt lat="43.70542" lon="5.55242">
        <ele>274</ele>
        <time>2017-02-05T04:50:07Z</time>
      </trkpt>
      <trkpt lat="43.70618" lon="5.55273">
        <ele>271</ele>
        <time>2017-02-05T04:52:07Z</time>
      </trkpt>
      <trkpt lat="43.70619" lon="5.55272">
        <ele>271</ele>
        <time>2017-02-05T04:54:07Z</time>
      </trkpt>
      <trkpt lat="43.7062" lon="5.5527">
        <ele>271</ele>
        <time>2017-02-05T04:56:07Z</time>
      </trkpt>
      <trkpt lat="43.70621" lon="5.55267">
        <ele>271</ele>
        <time>2017-02-05T04:58:07Z</time>
      </trkpt>
      <trkpt lat="43.70624" lon="5.55262">
        <ele>270</ele>
        <time>2017-02-05T05:00:07Z</time>
      </trkpt>
      <trkpt lat="43.70625" lon="5.55259">
        <ele>270</ele>
        <time>2017-02-05T05:02:07Z</time>
      </trkpt>
      <trkpt lat="43.70642" lon="5.55202">
        <ele>268</ele>
        <time>2017-02-05T05:04:07Z</time>
      </trkpt>
      <trkpt lat="43.7066" lon="5.55148">
        <ele>267</ele>
        <time>2017-02-05T05:06:07Z</time>
      </trkpt>
      <trkpt lat="43.70685" lon="5.55111">
        <ele>267</ele>
        <time>2017-02-05T05:08:07Z</time>
      </trkpt>
      <trkpt lat="43.70708" lon="5.55093">
        <ele>266</ele>
        <time>2017-02-05T05:10:07Z</time>
      </trkpt>
      <trkpt lat="43.70726" lon="5.5507">
        <ele>266</ele>
        <time>2017-02-05T05:12:07Z</time>
      </trkpt>
      <trkpt lat="43.70731" lon="5.55062">
        <ele>265</ele>
        <time>2017-02-05T05:14:07Z</time>
      </trkpt>
      <trkpt lat="43.70735" lon="5.55062">
        <ele>265</ele>
        <time>2017-02-05T05:16:07Z</time>
      </trkpt>
      <trkpt lat="43.70737" lon="5.55061">
        <ele>265</ele>
        <time>2017-02-05T05:18:07Z</time>
      </trkpt>
      <trkpt lat="43.7074" lon="5.5506">
        <ele>265</ele>
        <time>2017-02-05T05:20:07Z</time>
      </trkpt>
      <trkpt lat="43.70741" lon="5.55057">
        <ele>265</ele>
        <time>2017-02-05T05:22:07Z</time>
      </trkpt>
      <trkpt lat="43.70742" lon="5.55047">
        <ele>265</ele>
        <time>2017-02-05T05:24:07Z</time>
      </trkpt>
      <trkpt lat="43.70744" lon="5.55042">
        <ele>265</ele>
        <time>2017-02-05T05:26:07Z</time>
      </trkpt>
      <trkpt lat="43.70746" lon="5.55038">
        <ele>265</ele>
        <time>2017-02-05T05:28:07Z</time>
      </trkpt>
      <trkpt lat="43.7075" lon="5.55034">
        <ele>264</ele>
        <time>2017-02-05T05:30:07Z</time>
      </trkpt>
      <trkpt lat="43.70759" lon="5.55022">
        <ele>264</ele>
        <time>2017-02-05T05:32:07Z</time>
      </trkpt>
      <trkpt lat="43.70765" lon="5.55015">
        <ele>264</ele>
        <time>2017-02-05T05:34:07Z</time>
      </trkpt>
      <trkpt lat="43.70773" lon="5.55009">
        <ele>263</ele>
        <time>2017-02-05T05:36:07Z</time>
      </trkpt>
      <trkpt lat="43.70785" lon="5.55002">
        <ele>263</ele>
        <time>2017-02-05T05:38:07Z</time>
      </trkpt>
      <trkpt lat="43.70789" lon="5.54999">
        <ele>263</ele>
        <time>2017-02-05T05:40:07Z</time>
      </trkpt>
      <trkpt lat="43.70793" lon="5.54997">
        <ele>262</ele>
        <time>2017-02-05T05:42:07Z</time>
      </trkpt>
      <trkpt lat="43.70797" lon="5.54995">
        <ele>262</ele>
        <time>2017-02-05T05:44:07Z</time>
      </trkpt>
      <trkpt lat="43.70839" lon="5.54981">
        <ele>261</ele>
        <time>2017-02-05T05:46:07Z</time>
      </trkpt>
      <trkpt lat="43.70851" lon="5.54979">
        <ele>260</ele>
        <time>2017-02-05T05:48:07Z</time>
      </trkpt>
      <trkpt lat="43.70857" lon="5.54979">
        <ele>260</ele>
        <time>2017-02-05T05:50:07Z</time>
      </trkpt>
      <trkpt lat="43.70863" lon="5.54979">
        <ele>260</ele>
        <time>2017-02-05T05:52:07Z</time>
      </trkpt>
      <trkpt lat="43.70899" lon="5.54989">
        <ele>260</ele>
        <time>2017-02-05T05:54:07Z</time>
      </trkpt>
      <trkpt lat="43.70946" lon="5.55002">
        <ele>263</ele>
        <time>2017-02-05T05:56:07Z</time>
      </trkpt>
      <trkpt lat="43.7098" lon="5.54999">
        <ele>266</ele>
        <time>2017-02-05T05:58:07Z</time>
      </trkpt>
      <trkpt lat="43.70985" lon="5.54999">
        <ele>267</ele>
        <time>2017-02-05T06:00:07Z</time>
      </trkpt>
      <trkpt lat="43.71044" lon="5.54993">
        <ele>267</ele>
        <time>2017-02-05T06:02:07Z</time>
      </trkpt>
      <trkpt lat="43.71058" lon="5.54991">
        <ele>267</ele>
        <time>2017-02-05T06:04:07Z</time>
      </trkpt>
      <trkpt lat="43.71077" lon="5.54994">
        <ele>267</ele>
        <time>2017-02-05T06:06:07Z</time>
      </trkpt>
      <trkpt lat="43.71082" lon="5.54997">
        <ele>267</ele>
        <time>2017-02-05T06:08:07Z</time>
      </trkpt>
      <trkpt lat="43.71141" lon="5.55037">
        <ele>265</ele>
        <time>2017-02-05T06:10:07Z</time>
      </trkpt>
      <trkpt lat="43.71141" lon="5.55037">
        <ele>265</ele>
        <time>2017-02-05T06:12:07Z</time>
      </trkpt>
      <trkpt lat="43.71141" lon="5.55036">
        <ele>265</ele>
        <time>2017-02-05T06:14:07Z</time>
      </trkpt>
      <trkpt lat="43.71141" lon="5.55036">
        <ele>265</ele>
        <time>2017-02-05T06:16:07Z</time>
      </trkpt>
      <trkpt lat="43.71141" lon="5.55036">
        <ele>265</ele>
        <time>2017-02-05T06:18:07Z</time>
      </trkpt>
      <trkpt lat="43.7114" lon="5.55035">
        <ele>265</ele>
        <time>2017-02-05T06:20:07Z</time>
      </trkpt>
      <trkpt lat="43.7114" lon="5.55035">
        <ele>265</ele>
        <time>2017-02-05T06:22:07Z</time>
      </trkpt>
      <trkpt lat="43.71142" lon="5.55037">
        <ele>265</ele>
        <time>2017-02-05T06:24:07Z</time>
      </trkpt>
      <trkpt lat="43.71143" lon="5.55039">
        <ele>265</ele>
        <time>2017-02-05T06:26:07Z</time>
      </trkpt>
      <trkpt lat="43.71153" lon="5.55072">
        <ele>265</ele>
        <time>2017-02-05T06:28:07Z</time>
      </trkpt>
      <trkpt lat="43.71168" lon="5.55113">
        <ele>265</ele>
        <time>2017-02-05T06:30:07Z</time>
      </trkpt>
      <trkpt lat="43.71171" lon="5.55118">
        <ele>265</ele>
        <time>2017-02-05T06:32:07Z</time>
      </trkpt>
      <trkpt lat="43.71183" lon="5.55132">
        <ele>264</ele>
        <time>2017-02-05T06:34:07Z</time>
      </trkpt>
      <trkpt lat="43.71196" lon="5.55146">
        <ele>263</ele>
        <time>2017-02-05T06:36:07Z</time>
      </trkpt>
      <trkpt lat="43.71217" lon="5.55166">
        <ele>261</ele>
        <time>2017-02-05T06:38:07Z</time>
      </trkpt>
      <trkpt lat="43.71229" lon="5.55179">
        <ele>260</ele>
        <time>2017-02-05T06:40:07Z</time>
      </trkpt>
      <trkpt lat="43.7123" lon="5.55179">
        <ele>259</ele>
        <time>2017-02-05T06:42:07Z</time>
      </trkpt>
      <trkpt lat="43.71233" lon="5.55166">
        <ele>259</ele>
        <time>2017-02-05T06:44:07Z</time>
      </trkpt>
      <trkpt lat="43.71235" lon="5.55163">
        <ele>259</ele>
        <time>2017-02-05T06:46:07Z</time>
      </trkpt>
      <trkpt lat="43.71244" lon="5.55155">
        <ele>258</ele>
        <time>2017-02-05T06:48:07Z</time>
      </trkpt>
      <trkpt lat="43.71249" lon="5.55149">
        <ele>258</ele>
        <time>2017-02-05T06:50:07Z</time>
      </trkpt>
      <trkpt lat="43.71259" lon="5.55132">
        <ele>258</ele>
        <time>2017-02-05T06:52:07Z</time>
      </trkpt>
      <trkpt lat="43.71265" lon="5.55124">
        <ele>259</ele>
        <time>2017-02-05T06:54:07Z</time>
      </trkpt>
      <trkpt lat="43.71279" lon="5.55107">
        <ele>259</ele>
        <time>2017-02-05T06:56:07Z</time>
      </trkpt>
      <trkpt lat="43.71287" lon="5.551">
        <ele>259</ele>
        <time>2017-02-05T06:58:07Z</time>
      </trkpt>
      <trkpt lat="43.71362" lon="5.55032">
        <ele>259</ele>
        <time>2017-02-05T07:00:07Z</time>
      </trkpt>
      <trkpt lat="43.71434" lon="5.54957">
        <ele>258</ele>
        <time>2017-02-05T07:02:07Z</time>
      </trkpt>
      <trkpt lat="43.71493" lon="5.54894">
        <ele>256</ele>
        <time>2017-02-05T07:04:07Z</time>
      </trkpt>
      <trkpt lat="43.7151" lon="5.54879">
        <ele>256</ele>
        <time>2017-02-05T07:06:07Z</time>
      </trkpt>
      <trkpt lat="43.71558" lon="5.54831">
        <ele>255</ele>
        <time>2017-02-05T07:08:07Z</time>
      </trkpt>
      <trkpt lat="43.7158" lon="5.548">
        <ele>254</ele>
        <time>2017-02-05T07:10:07Z</time>
      </trkpt>
      <trkpt lat="43.71606" lon="5.54742">
        <ele>254</ele>
        <time>2017-02-05T07:12:07Z</time>
      </trkpt>
      <trkpt lat="43.7164" lon="5.5466">
        <ele>252</ele>
        <time>2017-02-05T07:14:07Z</time>
      </trkpt>
      <trkpt lat="43.71656" lon="5.5463">
        <ele>252</ele>
        <time>2017-02-05T07:16:07Z</time>
      </trkpt>
      <trkpt lat="43.71659" lon="5.54628">
        <ele>252</ele>
        <time>2017-02-05T07:18:07Z</time>
      </trkpt>
      <trkpt lat="43.71663" lon="5.54628">
        <ele>251</ele>
        <time>2017-02-05T07:20:07Z</time>
      </trkpt>
      <trkpt lat="43.7167" lon="5.54629">
        <ele>251</ele>
        <time>2017-02-05T07:22:07Z</time>
      </trkpt>
      <trkpt lat="43.71705" lon="5.54632">
        <ele>250</ele>
        <time>2017-02-05T07:24:07Z</time>
      </trkpt>
      <trkpt lat="43.71748" lon="5.54621">
        <ele>249</ele>
        <time>2017-02-05T07:26:07Z</time>
      </trkpt>
      <trkpt lat="43.71796" lon="5.54603">
        <ele>248</ele>
        <time>2017-02-05T07:28:07Z</time>
      </trkpt>
      <trkpt lat="43.7184" lon="5.54597">
        <ele>248</ele>
        <time>2017-02-05T07:30:07Z</time>
      </trkpt>
      <trkpt lat="43.71868" lon="5.54606">
        <ele>247</ele>
        <time>2017-02-05T07:32:07Z</time>
      </trkpt>
      <trkpt lat="43.71894" lon="5.5463">
        <ele>248</ele>
        <time>2017-02-05T07:34:07Z</time>
      </trkpt>
      <trkpt lat="43.71922" lon="5.54674">
        <ele>251</ele>
        <time>2017-02-05T07:36:07Z</time>
      </trkpt>
      <trkpt lat="43.71932" lon="5.54691">
        <ele>252</ele>
        <time>2017-02-05T07:38:07Z</time>
      </trkpt>
      <trkpt lat="43.71936" lon="5.54697">
        <ele>252</ele>
        <time>2017-02-05T07:40:07Z</time>
      </trkpt>
      <trkpt lat="43.71975" lon="5.5474">
        <ele>251</ele>
        <time>2017-02-05T07:42:07Z</time>
      </trkpt>
      <trkpt lat="43.72002" lon="5.54783">
        <ele>250</ele>
        <time>2017-02-05T07:44:07Z</time>
      </trkpt>
      <trkpt lat="43.7201" lon="5.548">
        <ele>250</ele>
        <time>2017-02-05T07:46:07Z</time>
      </trkpt>
      <trkpt lat="43.72032" lon="5.54853">
        <ele>251</ele>
        <time>2017-02-05T07:48:07Z</time>
      </trkpt>
      <trkpt lat="43.7205" lon="5.54879">
        <ele>251</ele>
        <time>2017-02-05T07:50:07Z</time>
      </trkpt>
      <trkpt lat="43.72057" lon="5.54882">
        <ele>250</ele>
        <time>2017-02-05T07:52:07Z</time>
      </trkpt>
      <trkpt lat="43.72068" lon="5.54881">
        <ele>248</ele>
        <time>2017-02-05T07:54:07Z</time>
      </trkpt>
      <trkpt lat="43.72072" lon="5.5488">
        <ele>247</ele>
        <time>2017-02-05T07:56:07Z</time>
      </trkpt>
      <trkpt lat="43.72125" lon="5.54853">
        <ele>242</ele>
        <time>2017-02-05T07:58:07Z</time>
      </trkpt>
      <trkpt lat="43.72146" lon="5.5484">
        <ele>241</ele>
        <time>2017-02-05T08:00:07Z</time>
      </trkpt>
      <trkpt lat="43.7215" lon="5.54839">
        <ele>241</ele>
        <time>2017-02-05T08:02:07Z</time>
      </trkpt>
      <trkpt lat="43.72155" lon="5.5484">
        <ele>241</ele>
        <time>2017-02-05T08:04:07Z</time>
      </trkpt>
      <trkpt lat="43.72159" lon="5.54841">
        <ele>241</ele>
        <time>2017-02-05T08:06:07Z</time>
      </trkpt>
      <trkpt lat="43.72162" lon="5.54844">
        <ele>241</ele>
        <time>2017-02-05T08:08:07Z</time>
      </trkpt>
      <trkpt lat="43.72165" lon="5.54847">
        <ele>241</ele>
        <time>2017-02-05T08:10:07Z</time>
      </trkpt>
      <trkpt lat="43.72168" lon="5.5485">
        <ele>241</ele>
        <time>2017-02-05T08:12:07Z</time>
      </trkpt>
      <trkpt lat="43.72172" lon="5.54858">
        <ele>242</ele>
        <time>2017-02-05T08:14:07Z</time>
      </trkpt>
      <trkpt lat="43.72186" lon="5.54892">
        <ele>242</ele>
        <time>2017-02-05T08:16:07Z</time>
      </trkpt>
      <trkpt lat="43.72192" lon="5.54953">
        <ele>244</ele>
        <time>2017-02-05T08:18:07Z</time>
      </trkpt>
      <trkpt lat="43.72211" lon="5.54991">
        <ele>244</ele>
        <time>2017-02-05T08:20:07Z</time>
      </trkpt>
      <trkpt lat="43.72249" lon="5.55029">
        <ele>245</ele>
        <time>2017-02-05T08:22:07Z</time>
      </trkpt>
      <trkpt lat="43.72267" lon="5.5504">
        <ele>245</ele>
        <time>2017-02-05T08:24:07Z</time>
      </trkpt>
      <trkpt lat="43.72271" lon="5.55041">
        <ele>245</ele>
        <time>2017-02-05T08:26:07Z</time>
      </trkpt>
      <trkpt lat="43.72288" lon="5.55047">
        <ele>245</ele>
        <time>2017-02-05T08:28:07Z</time>
      </trkpt>
      <trkpt lat="43.7231" lon="5.55058">
        <ele>245</ele>
        <time>2017-02-05T08:30:07Z</time>
      </trkpt>
      <trkpt lat="43.72333" lon="5.55069">
        <ele>245</ele>
        <time>2017-02-05T08:32:07Z</time>
      </trkpt>
      <trkpt lat="43.72338" lon="5.5507">
        <ele>245</ele>
        <time>2017-02-05T08:34:07Z</time>
      </trkpt>
      <trkpt lat="43.72391" lon="5.55075">
        <ele>245</ele>
        <time>2017-02-05T08:36:07Z</time>
      </trkpt>
      <trkpt lat="43.72423" lon="5.55086">
        <ele>245</ele>
        <time>2017-02-05T08:38:07Z</time>
      </trkpt>
      <trkpt lat="43.72426" lon="5.55084">
        <ele>245</ele>
        <time>2017-02-05T08:40:07Z</time>
      </trkpt>
      <trkpt lat="43.72427" lon="5.55085">
        <ele>245</ele>
        <time>2017-02-05T08:42:07Z</time>
      </trkpt>
      <trkpt lat="43.7243" lon="5.55085">
        <ele>245</ele>
        <time>2017-02-05T08:44:07Z</time>
      </trkpt>
      <trkpt lat="43.72432" lon="5.55083">
        <ele>245</ele>
        <time>2017-02-05T08:46:07Z</time>
      </trkpt>
      <trkpt lat="43.72433" lon="5.55081">
        <ele>245</ele>
        <time>2017-02-05T08:48:07Z</time>
      </trkpt>
      <trkpt lat="43.72435" lon="5.55076">
        <ele>245</ele>
        <time>2017-02-05T08:50:07Z</time>
      </trkpt>
      <trkpt lat="43.72437" lon="5.55074">
        <ele>246</ele>
        <time>2017-02-05T08:52:07Z</time>
      </trkpt>
      <trkpt lat="43.72468" lon="5.55041">
        <ele>247</ele>
        <time>2017-02-05T08:54:07Z</time>
      </trkpt>
      <trkpt lat="43.72471" lon="5.54995">
        <ele>249</ele>
        <time>2017-02-05T08:56:07Z</time>
      </trkpt>
      <trkpt lat="43.72473" lon="5.54979">
        <ele>251</ele>
        <time>2017-02-05T08:58:07Z</time>
      </trkpt>
      <trkpt lat="43.72476" lon="5.54977">
        <ele>252</ele>
        <time>2017-02-05T09:00:07Z</time>
      </trkpt>
      <trkpt lat="43.72523" lon="5.54983">
        <ele>257</ele>
        <time>2017-02-05T09:02:07Z</time>
      </trkpt>
      <trkpt lat="43.72556" lon="5.54991">
        <ele>260</ele>
        <time>2017-02-05T09:04:07Z</time>
      </trkpt>
      <trkpt lat="43.72579" lon="5.54999">
        <ele>262</ele>
        <time>2017-02-05T09:06:07Z</time>
      </trkpt>
      <trkpt lat="43.726" lon="5.55012">
        <ele>262</ele>
        <time>2017-02-05T09:08:07Z</time>
      </trkpt>
      <trkpt lat="43.72601" lon="5.55011">
        <ele>262</ele>
        <time>2017-02-05T09:10:07Z</time>
      </trkpt>
      <trkpt lat="43.72601" lon="5.55009">
        <ele>262</ele>
        <time>2017-02-05T09:12:07Z</time>
      </trkpt>
      <trkpt lat="43.72599" lon="5.55008">
        <ele>262</ele>
        <time>2017-02-05T09:14:07Z</time>
      </trkpt>
      <trkpt lat="43.72593" lon="5.55004">
        <ele>262</ele>
        <time>2017-02-05T09:16:07Z</time>
      </trkpt>
      <trkpt lat="43.7259" lon="5.55">
        <ele>262</ele>
        <time>2017-02-05T09:18:07Z</time>
      </trkpt>
      <trkpt lat="43.72588" lon="5.54999">
        <ele>262</ele>
        <time>2017-02-05T09:20:07Z</time>
      </trkpt>
      <trkpt lat="43.72584" lon="5.54996">
        <ele>263</ele>
        <time>2017-02-05T09:22:07Z</time>
      </trkpt>
      <trkpt lat="43.72578" lon="5.54993">
        <ele>262</ele>
        <time>2017-02-05T09:24:07Z</time>
      </trkpt>
      <trkpt lat="43.72569" lon="5.54984">
        <ele>262</ele>
        <time>2017-02-05T09:26:07Z</time>
      </trkpt>
      <trkpt lat="43.72568" lon="5.54981">
        <ele>262</ele>
        <time>2017-02-05T09:28:07Z</time>
      </trkpt>
      <trkpt lat="43.72568" lon="5.5498">
        <ele>263</ele>
        <time>2017-02-05T09:30:07Z</time>
      </trkpt>
      <trkpt lat="43.72569" lon="5.54977">
        <ele>263</ele>
        <time>2017-02-05T09:32:07Z</time>
      </trkpt>
      <trkpt lat="43.72566" lon="5.54979">
        <ele>262</ele>
        <time>2017-02-05T09:34:07Z</time>
      </trkpt>
      <trkpt lat="43.72565" lon="5.54981">
        <ele>262</ele>
        <time>2017-02-05T09:36:07Z</time>
      </trkpt>
      <trkpt lat="43.72566" lon="5.54975">
        <ele>263</ele>
        <time>2017-02-05T09:38:07Z</time>
      </trkpt>
      <trkpt lat="43.72576" lon="5.54962">
        <ele>266</ele>
        <time>2017-02-05T09:40:07Z</time>
      </trkpt>
      <trkpt lat="43.72582" lon="5.54969">
        <ele>266</ele>
        <time>2017-02-05T09:42:07Z</time>
      </trkpt>
      <trkpt lat="43.72584" lon="5.54971">
        <ele>266</ele>
        <time>2017-02-05T09:44:07Z</time>
      </trkpt>
      <trkpt lat="43.72589" lon="5.54974">
        <ele>265</ele>
        <time>2017-02-05T09:46:07Z</time>
      </trkpt>
      <trkpt lat="43.72591" lon="5.54973">
        <ele>266</ele>
        <time>2017-02-05T09:48:07Z</time>
      </trkpt>
      <trkpt lat="43.72595" lon="5.54969">
        <ele>266</ele>
        <time>2017-02-05T09:50:07Z</time>
      </trkpt>
      <trkpt lat="43.726" lon="5.54959">
        <ele>267</ele>
        <time>2017-02-05T09:52:07Z</time>
      </trkpt>
      <trkpt lat="43.72617" lon="5.54931">
        <ele>270</ele>
        <time>2017-02-05T09:54:07Z</time>
      </trkpt>
      <trkpt lat="43.72628" lon="5.54906">
        <ele>271</ele>
        <time>2017-02-05T09:56:07Z</time>
      </trkpt>
      <trkpt lat="43.72628" lon="5.54905">
        <ele>271</ele>
        <time>2017-02-05T09:58:07Z</time>
      </trkpt>
      <trkpt lat="43.72629" lon="5.549">
        <ele>271</ele>
        <time>2017-02-05T10:00:07Z</time>
      </trkpt>
      <trkpt lat="43.72628" lon="5.54899">
        <ele>271</ele>
        <time>2017-02-05T10:02:07Z</time>
      </trkpt>
      <trkpt lat="43.72615" lon="5.54876">
        <ele>271</ele>
        <time>2017-02-05T10:04:07Z</time>
      </trkpt>
      <trkpt lat="43.72602" lon="5.54828">
        <ele>271</ele>
        <time>2017-02-05T10:06:07Z</time>
      </trkpt>
      <trkpt lat="43.72596" lon="5.54787">
        <ele>271</ele>
        <time>2017-02-05T10:08:07Z</time>
      </trkpt>
      <trkpt lat="43.72597" lon="5.54736">
        <ele>271</ele>
        <time>2017-02-05T10:10:07Z</time>
      </trkpt>
      <trkpt lat="43.72611" lon="5.54681">
        <ele>271</ele>
        <time>2017-02-05T10:12:07Z</time>
      </trkpt>
      <trkpt lat="43.7261" lon="5.54678">
        <ele>271</ele>
        <time>2017-02-05T10:14:07Z</time>
      </trkpt>
      <trkpt lat="43.72608" lon="5.54674">
        <ele>271</ele>
        <time>2017-02-05T10:16:07Z</time>
      </trkpt>
      <trkpt lat="43.72607" lon="5.54673">
        <ele>271</ele>
        <time>2017-02-05T10:18:07Z</time>
      </trkpt>
      <trkpt lat="43.72604" lon="5.54671">
        <ele>271</ele>
        <time>2017-02-05T10:20:07Z</time>
      </trkpt>
      <trkpt lat="43.72576" lon="5.54642">
        <ele>270</ele>
        <time>2017-02-05T10:22:07Z</time>
      </trkpt>
      <trkpt lat="43.72569" lon="5.5463">
        <ele>269</ele>
        <time>2017-02-05T10:24:07Z</time>
      </trkpt>
      <trkpt lat="43.72569" lon="5.54626">
        <ele>269</ele>
        <time>2017-02-05T10:26:07Z</time>
      </trkpt>
      <trkpt lat="43.7257" lon="5.54622">
        <ele>269</ele>
        <time>2017-02-05T10:28:07Z</time>
      </trkpt>
      <trkpt lat="43.72572" lon="5.54618">
        <ele>268</ele>
        <time>2017-02-05T10:30:07Z</time>
      </trkpt>
      <trkpt lat="43.72576" lon="5.54611">
        <ele>268</ele>
        <time>2017-02-05T10:32:07Z</time>
      </trkpt>
      <trkpt lat="43.72578" lon="5.54609">
        <ele>268</ele>
        <time>2017-02-05T10:34:07Z</time>
      </trkpt>
      <trkpt lat="43.72604" lon="5.54583">
        <ele>267</ele>
        <time>2017-02-05T10:36:07Z</time>
      </trkpt>
      <trkpt lat="43.72605" lon="5.54582">
        <ele>267</ele>
        <time>2017-02-05T10:38:07Z</time>
      </trkpt>
      <trkpt lat="43.72608" lon="5.54578">
        <ele>266</ele>
        <time>2017-02-05T10:40:07Z</time>
      </trkpt>
      <trkpt lat="43.72608" lon="5.54576">
        <ele>266</ele>
        <time>2017-02-05T10:42:07Z</time>
      </trkpt>
      <trkpt lat="43.72607" lon="5.54574">
        <ele>266</ele>
        <time>2017-02-05T10:44:07Z</time>
      </trkpt>
      <trkpt lat="43.72606" lon="5.54575">
        <ele>266</ele>
        <time>2017-02-05T10:46:07Z</time>
      </trkpt>
      <trkpt lat="43.72607" lon="5.54577">
        <ele>266</ele>
        <time>2017-02-05T10:48:07Z</time>
      </trkpt>
      <trkpt lat="43.72607" lon="5.54576">
        <ele>266</ele>
        <time>2017-02-05T10:50:07Z</time>
      </trkpt>
      <trkpt lat="43.72608" lon="5.54577">
        <ele>266</ele>
        <time>2017-02-05T10:52:07Z</time>
      </trkpt>
      <trkpt lat="43.72607" lon="5.54579">
        <ele>267</ele>
        <time>2017-02-05T10:54:07Z</time>
      </trkpt>
      <trkpt lat="43.72607" lon="5.5458">
        <ele>267</ele>
        <time>2017-02-05T10:56:07Z</time>
      </trkpt>
      <trkpt lat="43.72609" lon="5.54578">
        <ele>267</ele>
        <time>2017-02-05T10:58:07Z</time>
      </trkpt>
      <trkpt lat="43.7261" lon="5.54579">
        <ele>267</ele>
        <time>2017-02-05T11:00:07Z</time>
      </trkpt>
      <trkpt lat="43.72609" lon="5.5458">
        <ele>267</ele>
        <time>2017-02-05T11:02:07Z</time>
      </trkpt>
      <trkpt lat="43.7261" lon="5.5458">
        <ele>267</ele>
        <time>2017-02-05T11:04:07Z</time>
      </trkpt>
      <trkpt lat="43.72609" lon="5.54578">
        <ele>267</ele>
        <time>2017-02-05T11:06:07Z</time>
      </trkpt>
      <trkpt lat="43.72607" lon="5.54577">
        <ele>266</ele>
        <time>2017-02-05T11:08:07Z</time>
      </trkpt>
      <trkpt lat="43.72607" lon="5.54578">
        <ele>266</ele>
        <time>2017-02-05T11:10:07Z</time>
      </trkpt>
      <trkpt lat="43.72611" lon="5.54579">
        <ele>267</ele>
        <time>2017-02-05T11:12:07Z</time>
      </trkpt>
      <trkpt lat="43.72611" lon="5.54581">
        <ele>267</ele>
        <time>2017-02-05T11:14:07Z</time>
      </trkpt>
      <trkpt lat="43.72614" lon="5.5458">
        <ele>267</ele>
        <time>2017-02-05T11:16:07Z</time>
      </trkpt>
      <trkpt lat="43.72613" lon="5.54577">
        <ele>267</ele>
        <time>2017-02-05T11:18:07Z</time>
      </trkpt>
      <trkpt lat="43.72611" lon="5.54575">
        <ele>266</ele>
        <time>2017-02-05T11:20:07Z</time>
      </trkpt>
      <trkpt lat="43.72613" lon="5.54577">
        <ele>267</ele>
        <time>2017-02-05T11:22:07Z</time>
      </trkpt>
      <trkpt lat="43.72614" lon="5.54576">
        <ele>267</ele>
        <time>2017-02-05T11:24:07Z</time>
      </trkpt>
      <trkpt lat="43.72612" lon="5.54576">
        <ele>266</ele>
        <time>2017-02-05T11:26:07Z</time>
      </trkpt>
      <trkpt lat="43.72612" lon="5.54574">
        <ele>266</ele>
        <time>2017-02-05T11:28:07Z</time>
      </trkpt>
      <trkpt lat="43.72615" lon="5.54577">
        <ele>267</ele>
        <time>2017-02-05T11:30:07Z</time>
      </trkpt>
      <trkpt lat="43.72614" lon="5.54576">
        <ele>267</ele>
        <time>2017-02-05T11:32:07Z</time>
      </trkpt>
      <trkpt lat="43.72617" lon="5.54572">
        <ele>266</ele>
        <time>2017-02-05T11:34:07Z</time>
      </trkpt>
      <trkpt lat="43.72618" lon="5.54574">
        <ele>267</ele>
        <time>2017-02-05T11:36:07Z</time>
      </trkpt>
      <trkpt lat="43.72617" lon="5.54576">
        <ele>267</ele>
        <time>2017-02-05T11:38:07Z</time>
      </trkpt>
      <trkpt lat="43.72617" lon="5.54576">
        <ele>267</ele>
        <time>2017-02-05T11:40:07Z</time>
      </trkpt>
      <trkpt lat="43.72618" lon="5.54575">
        <ele>267</ele>
        <time>2017-02-05T11:42:07Z</time>
      </trkpt>
      <trkpt lat="43.72614" lon="5.54576">
        <ele>267</ele>
        <time>2017-02-05T11:44:07Z</time>
      </trkpt>
      <trkpt lat="43.72613" lon="5.54575">
        <ele>266</ele>
        <time>2017-02-05T11:46:07Z</time>
      </trkpt>
      <trkpt lat="43.72614" lon="5.54575">
        <ele>266</ele>
        <time>2017-02-05T11:48:07Z</time>
      </trkpt>
      <trkpt lat="43.72613" lon="5.54576">
        <ele>267</ele>
        <time>2017-02-05T11:50:07Z</time>
      </trkpt>
      <trkpt lat="43.72614" lon="5.54573">
        <ele>266</ele>
        <time>2017-02-05T11:52:07Z</time>
      </trkpt>
      <trkpt lat="43.72612" lon="5.54572">
        <ele>266</ele>
        <time>2017-02-05T11:54:07Z</time>
      </trkpt>
      <trkpt lat="43.72611" lon="5.54573">
        <ele>266</ele>
        <time>2017-02-05T11:56:07Z</time>
      </trkpt>
      <trkpt lat="43.72615" lon="5.54575">
        <ele>267</ele>
        <time>2017-02-05T11:58:07Z</time>
      </trkpt>
      <trkpt lat="43.72611" lon="5.54575">
        <ele>266</ele>
        <time>2017-02-05T12:00:07Z</time>
      </trkpt>
      <trkpt lat="43.72611" lon="5.5458">
        <ele>267</ele>
        <time>2017-02-05T12:02:07Z</time>
      </trkpt>
      <trkpt lat="43.72607" lon="5.54579">
        <ele>267</ele>
        <time>2017-02-05T12:04:07Z</time>
      </trkpt>
      <trkpt lat="43.72604" lon="5.54579">
        <ele>266</ele>
        <time>2017-02-05T12:06:07Z</time>
      </trkpt>
      <trkpt lat="43.72606" lon="5.54577">
        <ele>266</ele>
        <time>2017-02-05T12:08:07Z</time>
      </trkpt>
      <trkpt lat="43.72608" lon="5.54579">
        <ele>267</ele>
        <time>2017-02-05T12:10:07Z</time>
      </trkpt>
      <trkpt lat="43.72604" lon="5.54577">
        <ele>266</ele>
        <time>2017-02-05T12:12:07Z</time>
      </trkpt>
      <trkpt lat="43.72599" lon="5.54586">
        <ele>267</ele>
        <time>2017-02-05T12:14:07Z</time>
      </trkpt>
      <trkpt lat="43.72596" lon="5.54587">
        <ele>267</ele>
        <time>2017-02-05T12:16:07Z</time>
      </trkpt>
      <trkpt lat="43.72594" lon="5.54588">
        <ele>267</ele>
        <time>2017-02-05T12:18:07Z</time>
      </trkpt>
      <trkpt lat="43.72592" lon="5.5459">
        <ele>267</ele>
        <time>2017-02-05T12:20:07Z</time>
      </trkpt>
      <trkpt lat="43.72588" lon="5.54594">
        <ele>267</ele>
        <time>2017-02-05T12:22:07Z</time>
      </trkpt>
      <trkpt lat="43.72572" lon="5.54618">
        <ele>268</ele>
        <time>2017-02-05T12:24:07Z</time>
      </trkpt>
      <trkpt lat="43.72573" lon="5.54621">
        <ele>269</ele>
        <time>2017-02-05T12:26:07Z</time>
      </trkpt>
      <trkpt lat="43.72575" lon="5.54624">
        <ele>269</ele>
        <time>2017-02-05T12:28:07Z</time>
      </trkpt>
      <trkpt lat="43.72579" lon="5.54629">
        <ele>269</ele>
        <time>2017-02-05T12:30:07Z</time>
      </trkpt>
      <trkpt lat="43.72607" lon="5.54667">
        <ele>271</ele>
        <time>2017-02-05T12:32:07Z</time>
      </trkpt>
      <trkpt lat="43.72609" lon="5.54671">
        <ele>271</ele>
        <time>2017-02-05T12:34:07Z</time>
      </trkpt>
      <trkpt lat="43.7261" lon="5.54674">
        <ele>271</ele>
        <time>2017-02-05T12:36:07Z</time>
      </trkpt>
      <trkpt lat="43.7261" lon="5.54678">
        <ele>271</ele>
        <time>2017-02-05T12:38:07Z</time>
      </trkpt>
      <trkpt lat="43.72595" lon="5.5473">
        <ele>271</ele>
        <time>2017-02-05T12:40:07Z</time>
      </trkpt>
      <trkpt lat="43.72595" lon="5.54753">
        <ele>271</ele>
        <time>2017-02-05T12:42:07Z</time>
      </trkpt>
      <trkpt lat="43.72596" lon="5.54769">
        <ele>271</ele>
        <time>2017-02-05T12:44:07Z</time>
      </trkpt>
      <trkpt lat="43.726" lon="5.54798">
        <ele>271</ele>
        <time>2017-02-05T12:46:07Z</time>
      </trkpt>
      <trkpt lat="43.72611" lon="5.54857">
        <ele>271</ele>
        <time>2017-02-05T12:48:07Z</time>
      </trkpt>
      <trkpt lat="43.72636" lon="5.5491">
        <ele>271</ele>
        <time>2017-02-05T12:50:07Z</time>
      </trkpt>
      <trkpt lat="43.72644" lon="5.54924">
        <ele>270</ele>
        <time>2017-02-05T12:52:07Z</time>
      </trkpt>
      <trkpt lat="43.72654" lon="5.54935">
        <ele>270</ele>
        <time>2017-02-05T12:54:07Z</time>
      </trkpt>
      <trkpt lat="43.72657" lon="5.54938">
        <ele>269</ele>
        <time>2017-02-05T12:56:07Z</time>
      </trkpt>
      <trkpt lat="43.72706" lon="5.54965">
        <ele>269</ele>
        <time>2017-02-05T12:58:07Z</time>
      </trkpt>
      <trkpt lat="43.72758" lon="5.54997">
        <ele>267</ele>
        <time>2017-02-05T13:00:07Z</time>
      </trkpt>
      <trkpt lat="43.72778" lon="5.5501">
        <ele>266</ele>
        <time>2017-02-05T13:02:07Z</time>
      </trkpt>
      <trkpt lat="43.72837" lon="5.55044">
        <ele>263</ele>
        <time>2017-02-05T13:04:07Z</time>
      </trkpt>
      <trkpt lat="43.72906" lon="5.55087">
        <ele>263</ele>
        <time>2017-02-05T13:06:07Z</time>
      </trkpt>
      <trkpt lat="43.72934" lon="5.55105">
        <ele>263</ele>
        <time>2017-02-05T13:08:07Z</time>
      </trkpt>
      <trkpt lat="43.72934" lon="5.5511">
        <ele>262</ele>
        <time>2017-02-05T13:10:07Z</time>
      </trkpt>
      <trkpt lat="43.72931" lon="5.55115">
        <ele>262</ele>
        <time>2017-02-05T13:12:07Z</time>
      </trkpt>
      <trkpt lat="43.72927" lon="5.55118">
        <ele>262</ele>
        <time>2017-02-05T13:14:07Z</time>
      </trkpt>
      <trkpt lat="43.72882" lon="5.55141">
        <ele>258</ele>
        <time>2017-02-05T13:16:07Z</time>
      </trkpt>
      <trkpt lat="43.72875" lon="5.55143">
        <ele>258</ele>
        <time>2017-02-05T13:18:07Z</time>
      </trkpt>
      <trkpt lat="43.7286" lon="5.55147">
        <ele>257</ele>
        <time>2017-02-05T13:20:07Z</time>
      </trkpt>
      <trkpt lat="43.72852" lon="5.55145">
        <ele>257</ele>
        <time>2017-02-05T13:22:07Z</time>
      </trkpt>
      <trkpt lat="43.72845" lon="5.55141">
        <ele>257</ele>
        <time>2017-02-05T13:24:07Z</time>
      </trkpt>
      <trkpt lat="43.72819" lon="5.55123">
        <ele>258</ele>
        <time>2017-02-05T13:26:07Z</time>
      </trkpt>
      <trkpt lat="43.72809" lon="5.55111">
        <ele>259</ele>
        <time>2017-02-05T13:28:07Z</time>
      </trkpt>
      <trkpt lat="43.72805" lon="5.55106">
        <ele>259</ele>
        <time>2017-02-05T13:30:07Z</time>
      </trkpt>
      <trkpt lat="43.728" lon="5.55101">
        <ele>260</ele>
        <time>2017-02-05T13:32:07Z</time>
      </trkpt>
      <trkpt lat="43.72795" lon="5.55098">
        <ele>260</ele>
        <time>2017-02-05T13:34:07Z</time>
      </trkpt>
      <trkpt lat="43.7279" lon="5.55096">
        <ele>261</ele>
        <time>2017-02-05T13:36:07Z</time>
      </trkpt>
      <trkpt lat="43.72787" lon="5.55095">
        <ele>261</ele>
        <time>2017-02-05T13:38:07Z</time>
      </trkpt>
      <trkpt lat="43.72785" lon="5.55097">
        <ele>261</ele>
        <time>2017-02-05T13:40:07Z</time>
      </trkpt>
      <trkpt lat="43.72783" lon="5.55101">
        <ele>260</ele>
        <time>2017-02-05T13:42:07Z</time>
      </trkpt>
      <trkpt lat="43.72782" lon="5.55104">
        <ele>260</ele>
        <time>2017-02-05T13:44:07Z</time>
      </trkpt>
      <trkpt lat="43.72782" lon="5.55111">
        <ele>259</ele>
        <time>2017-02-05T13:46:07Z</time>
      </trkpt>
      <trkpt lat="43.7278" lon="5.55115">
        <ele>258</ele>
        <time>2017-02-05T13:48:07Z</time>
      </trkpt>
      <trkpt lat="43.72779" lon="5.55121">
        <ele>258</ele>
        <time>2017-02-05T13:50:07Z</time>
      </trkpt>
      <trkpt lat="43.72774" lon="5.55142">
        <ele>255</ele>
        <time>2017-02-05T13:52:07Z</time>
      </trkpt>
      <trkpt lat="43.72775" lon="5.5514">
        <ele>255</ele>
        <time>2017-02-05T13:54:07Z</time>
      </trkpt>
    </trkseg>
  </trk>
</gpx>